<?xml version="1.0" encoding="UTF-8" standalone="no" ?>
<gpx xmlns="http://www.topografix.com/GPX/1/1" xmlns:xsi="http://www.w3.org/2001/XMLSchema-instance" xsi:schemaLocation="http://www.topografix.com/GPX/1/1 http://www.topografix.com/GPX/1/1/gpx.xsd" version="1.1" creator="VisuGPX - https://www.visugpx.com">
  <metadata>
    <name>La Cabrimontaine Montcabrier 1 mei 2022</name>
  </metadata>
  <trk>
    <name><![CDATA[Wandeling Montcabrier 1 mai]]></name>
    <trkseg>
      <trkpt lat="44.54158" lon="1.07323">
        <ele>239.678686</ele>
        <time>2022-05-01T07:29:05.185Z</time>
      </trkpt>
      <trkpt lat="44.5417" lon="1.07341">
        <ele>239.678686</ele>
        <time>2022-05-01T07:29:18.706Z</time>
      </trkpt>
      <trkpt lat="44.54164" lon="1.07331">
        <ele>239.678686</ele>
        <time>2022-05-01T07:29:26.688Z</time>
      </trkpt>
      <trkpt lat="44.5417" lon="1.07319">
        <ele>239.678686</ele>
        <time>2022-05-01T07:29:35.682Z</time>
      </trkpt>
      <trkpt lat="44.54174" lon="1.07308">
        <ele>239.678686</ele>
        <time>2022-05-01T07:29:40.703Z</time>
      </trkpt>
      <trkpt lat="44.54181" lon="1.07291">
        <ele>239.678686</ele>
        <time>2022-05-01T07:30:09.701Z</time>
      </trkpt>
      <trkpt lat="44.54185" lon="1.0728">
        <ele>239.678686</ele>
        <time>2022-05-01T07:30:15.686Z</time>
      </trkpt>
      <trkpt lat="44.54194" lon="1.07273">
        <ele>239.678686</ele>
        <time>2022-05-01T07:30:21.691Z</time>
      </trkpt>
      <trkpt lat="44.54202" lon="1.07266">
        <ele>239.678686</ele>
        <time>2022-05-01T07:30:27.686Z</time>
      </trkpt>
      <trkpt lat="44.54211" lon="1.07262">
        <ele>239.2209</ele>
        <time>2022-05-01T07:30:35.690Z</time>
      </trkpt>
      <trkpt lat="44.5422" lon="1.0726">
        <ele>238.651424</ele>
        <time>2022-05-01T07:30:42.688Z</time>
      </trkpt>
      <trkpt lat="44.54229" lon="1.07255">
        <ele>238.090921</ele>
        <time>2022-05-01T07:30:52.691Z</time>
      </trkpt>
      <trkpt lat="44.54258" lon="1.07253">
        <ele>236.387601</ele>
        <time>2022-05-01T07:31:35.700Z</time>
      </trkpt>
      <trkpt lat="44.54268" lon="1.07252">
        <ele>235.828723</ele>
        <time>2022-05-01T07:31:41.691Z</time>
      </trkpt>
      <trkpt lat="44.54277" lon="1.07253">
        <ele>235.264786</ele>
        <time>2022-05-01T07:31:49.688Z</time>
      </trkpt>
      <trkpt lat="44.54287" lon="1.07258">
        <ele>234.657217</ele>
        <time>2022-05-01T07:31:57.687Z</time>
      </trkpt>
      <trkpt lat="44.54297" lon="1.07261">
        <ele>234.066942</ele>
        <time>2022-05-01T07:32:04.705Z</time>
      </trkpt>
      <trkpt lat="44.54305" lon="1.07269">
        <ele>233.502596</ele>
        <time>2022-05-01T07:32:14.700Z</time>
      </trkpt>
      <trkpt lat="44.5431" lon="1.07278">
        <ele>232.969411</ele>
        <time>2022-05-01T07:32:23.693Z</time>
      </trkpt>
      <trkpt lat="44.54314" lon="1.07291">
        <ele>232.421702</ele>
        <time>2022-05-01T07:32:31.689Z</time>
      </trkpt>
      <trkpt lat="44.54321" lon="1.07329">
        <ele>230.766562</ele>
        <time>2022-05-01T07:33:07.707Z</time>
      </trkpt>
      <trkpt lat="44.54323" lon="1.07342">
        <ele>230.216035</ele>
        <time>2022-05-01T07:33:14.685Z</time>
      </trkpt>
      <trkpt lat="44.54324" lon="1.07356">
        <ele>229.620896</ele>
        <time>2022-05-01T07:33:25.696Z</time>
      </trkpt>
      <trkpt lat="44.54325" lon="1.07369">
        <ele>229.160408</ele>
        <time>2022-05-01T07:33:30.687Z</time>
      </trkpt>
      <trkpt lat="44.54325" lon="1.07382">
        <ele>229.566318</ele>
        <time>2022-05-01T07:33:35.690Z</time>
      </trkpt>
      <trkpt lat="44.54324" lon="1.07396">
        <ele>229.98505</ele>
        <time>2022-05-01T07:33:41.695Z</time>
      </trkpt>
      <trkpt lat="44.54318" lon="1.07408">
        <ele>230.411754</ele>
        <time>2022-05-01T07:33:47.685Z</time>
      </trkpt>
      <trkpt lat="44.54313" lon="1.07419">
        <ele>230.792819</ele>
        <time>2022-05-01T07:33:54.698Z</time>
      </trkpt>
      <trkpt lat="44.54307" lon="1.07428">
        <ele>231.176965</ele>
        <time>2022-05-01T07:34:05.704Z</time>
      </trkpt>
      <trkpt lat="44.54302" lon="1.0744">
        <ele>231.574954</ele>
        <time>2022-05-01T07:34:15.690Z</time>
      </trkpt>
      <trkpt lat="44.54295" lon="1.07449">
        <ele>231.961942</ele>
        <time>2022-05-01T07:34:37.688Z</time>
      </trkpt>
      <trkpt lat="44.54287" lon="1.07457">
        <ele>232.376818</ele>
        <time>2022-05-01T07:34:44.695Z</time>
      </trkpt>
      <trkpt lat="44.5428" lon="1.07465">
        <ele>232.758784</ele>
        <time>2022-05-01T07:34:49.678Z</time>
      </trkpt>
      <trkpt lat="44.54271" lon="1.07473">
        <ele>233.196222</ele>
        <time>2022-05-01T07:34:54.708Z</time>
      </trkpt>
      <trkpt lat="44.54263" lon="1.07482">
        <ele>233.607737</ele>
        <time>2022-05-01T07:35:01.694Z</time>
      </trkpt>
      <trkpt lat="44.54257" lon="1.07491">
        <ele>233.986208</ele>
        <time>2022-05-01T07:35:10.689Z</time>
      </trkpt>
      <trkpt lat="44.54255" lon="1.07504">
        <ele>234.375429</ele>
        <time>2022-05-01T07:35:19.711Z</time>
      </trkpt>
      <trkpt lat="44.54248" lon="1.07513">
        <ele>234.796248</ele>
        <time>2022-05-01T07:35:26.693Z</time>
      </trkpt>
      <trkpt lat="44.5424" lon="1.0752">
        <ele>235.191887</ele>
        <time>2022-05-01T07:35:36.699Z</time>
      </trkpt>
      <trkpt lat="44.54233" lon="1.07528">
        <ele>235.568767</ele>
        <time>2022-05-01T07:35:42.692Z</time>
      </trkpt>
      <trkpt lat="44.54225" lon="1.07535">
        <ele>235.959862</ele>
        <time>2022-05-01T07:35:55.698Z</time>
      </trkpt>
      <trkpt lat="44.54218" lon="1.07543">
        <ele>236.336248</ele>
        <time>2022-05-01T07:36:01.703Z</time>
      </trkpt>
      <trkpt lat="44.54209" lon="1.07549">
        <ele>237.146124</ele>
        <time>2022-05-01T07:36:06.691Z</time>
      </trkpt>
      <trkpt lat="44.54204" lon="1.07562">
        <ele>238.600139</ele>
        <time>2022-05-01T07:36:17.693Z</time>
      </trkpt>
      <trkpt lat="44.54204" lon="1.07575">
        <ele>239.921743</ele>
        <time>2022-05-01T07:36:25.692Z</time>
      </trkpt>
      <trkpt lat="44.54205" lon="1.07589">
        <ele>241.352882</ele>
        <time>2022-05-01T07:36:34.703Z</time>
      </trkpt>
      <trkpt lat="44.54207" lon="1.07601">
        <ele>242.657796</ele>
        <time>2022-05-01T07:36:44.697Z</time>
      </trkpt>
      <trkpt lat="44.54207" lon="1.07615">
        <ele>244.060067</ele>
        <time>2022-05-01T07:36:56.695Z</time>
      </trkpt>
      <trkpt lat="44.54207" lon="1.07628">
        <ele>245.350496</ele>
        <time>2022-05-01T07:37:07.695Z</time>
      </trkpt>
      <trkpt lat="44.5421" lon="1.0764">
        <ele>246.642631</ele>
        <time>2022-05-01T07:37:20.697Z</time>
      </trkpt>
      <trkpt lat="44.54211" lon="1.07653">
        <ele>247.962728</ele>
        <time>2022-05-01T07:37:32.702Z</time>
      </trkpt>
      <trkpt lat="44.54213" lon="1.07666">
        <ele>249.314061</ele>
        <time>2022-05-01T07:37:48.691Z</time>
      </trkpt>
      <trkpt lat="44.54214" lon="1.07679">
        <ele>250.649964</ele>
        <time>2022-05-01T07:38:01.690Z</time>
      </trkpt>
      <trkpt lat="44.54218" lon="1.07691">
        <ele>252.014564</ele>
        <time>2022-05-01T07:38:12.694Z</time>
      </trkpt>
      <trkpt lat="44.54218" lon="1.07704">
        <ele>253.345939</ele>
        <time>2022-05-01T07:38:26.704Z</time>
      </trkpt>
      <trkpt lat="44.5422" lon="1.07718">
        <ele>254.772869</ele>
        <time>2022-05-01T07:38:43.703Z</time>
      </trkpt>
      <trkpt lat="44.54222" lon="1.07732">
        <ele>256.2509</ele>
        <time>2022-05-01T07:38:51.691Z</time>
      </trkpt>
      <trkpt lat="44.54221" lon="1.07747">
        <ele>257.715171</ele>
        <time>2022-05-01T07:38:59.695Z</time>
      </trkpt>
      <trkpt lat="44.54219" lon="1.0776">
        <ele>259.073509</ele>
        <time>2022-05-01T07:39:07.689Z</time>
      </trkpt>
      <trkpt lat="44.54216" lon="1.07773">
        <ele>260.49711</ele>
        <time>2022-05-01T07:39:15.692Z</time>
      </trkpt>
      <trkpt lat="44.54218" lon="1.07786">
        <ele>261.829052</ele>
        <time>2022-05-01T07:39:23.699Z</time>
      </trkpt>
      <trkpt lat="44.54213" lon="1.07799">
        <ele>261.881056</ele>
        <time>2022-05-01T07:39:41.688Z</time>
      </trkpt>
      <trkpt lat="44.54208" lon="1.07814">
        <ele>261.368333</ele>
        <time>2022-05-01T07:39:47.696Z</time>
      </trkpt>
      <trkpt lat="44.54202" lon="1.07825">
        <ele>260.901602</ele>
        <time>2022-05-01T07:39:53.691Z</time>
      </trkpt>
      <trkpt lat="44.54197" lon="1.07836">
        <ele>260.479899</ele>
        <time>2022-05-01T07:39:59.679Z</time>
      </trkpt>
      <trkpt lat="44.54193" lon="1.07849">
        <ele>260.014768</ele>
        <time>2022-05-01T07:40:07.694Z</time>
      </trkpt>
      <trkpt lat="44.54186" lon="1.07857">
        <ele>259.597314</ele>
        <time>2022-05-01T07:40:16.685Z</time>
      </trkpt>
      <trkpt lat="44.54179" lon="1.07867">
        <ele>259.152382</ele>
        <time>2022-05-01T07:40:24.707Z</time>
      </trkpt>
      <trkpt lat="44.5417" lon="1.07868">
        <ele>258.714776</ele>
        <time>2022-05-01T07:40:33.691Z</time>
      </trkpt>
      <trkpt lat="44.54159" lon="1.07869">
        <ele>258.21918</ele>
        <time>2022-05-01T07:40:43.702Z</time>
      </trkpt>
      <trkpt lat="44.5415" lon="1.07868">
        <ele>257.790331</ele>
        <time>2022-05-01T07:40:57.705Z</time>
      </trkpt>
      <trkpt lat="44.54142" lon="1.07861">
        <ele>257.374031</ele>
        <time>2022-05-01T07:41:08.707Z</time>
      </trkpt>
      <trkpt lat="44.54134" lon="1.07856">
        <ele>256.944357</ele>
        <time>2022-05-01T07:41:19.694Z</time>
      </trkpt>
      <trkpt lat="44.54124" lon="1.0785">
        <ele>256.427973</ele>
        <time>2022-05-01T07:41:36.680Z</time>
      </trkpt>
      <trkpt lat="44.54113" lon="1.07848">
        <ele>255.954329</ele>
        <time>2022-05-01T07:41:42.687Z</time>
      </trkpt>
      <trkpt lat="44.54104" lon="1.07844">
        <ele>255.487082</ele>
        <time>2022-05-01T07:41:48.701Z</time>
      </trkpt>
      <trkpt lat="44.54095" lon="1.07841">
        <ele>255.062521</ele>
        <time>2022-05-01T07:41:55.686Z</time>
      </trkpt>
      <trkpt lat="44.54085" lon="1.07837">
        <ele>254.591747</ele>
        <time>2022-05-01T07:42:16.705Z</time>
      </trkpt>
      <trkpt lat="44.54077" lon="1.07831">
        <ele>254.157766</ele>
        <time>2022-05-01T07:42:24.694Z</time>
      </trkpt>
      <trkpt lat="44.54069" lon="1.0784">
        <ele>253.691255</ele>
        <time>2022-05-01T07:42:45.692Z</time>
      </trkpt>
      <trkpt lat="44.5407" lon="1.07853">
        <ele>253.22069</ele>
        <time>2022-05-01T07:43:05.696Z</time>
      </trkpt>
      <trkpt lat="44.54071" lon="1.07867">
        <ele>252.696989</ele>
        <time>2022-05-01T07:43:12.696Z</time>
      </trkpt>
      <trkpt lat="44.5407" lon="1.07881">
        <ele>252.190595</ele>
        <time>2022-05-01T07:43:18.688Z</time>
      </trkpt>
      <trkpt lat="44.54069" lon="1.07894">
        <ele>251.728366</ele>
        <time>2022-05-01T07:43:24.699Z</time>
      </trkpt>
      <trkpt lat="44.54068" lon="1.07908">
        <ele>251.224281</ele>
        <time>2022-05-01T07:43:41.700Z</time>
      </trkpt>
      <trkpt lat="44.54068" lon="1.07921">
        <ele>250.758674</ele>
        <time>2022-05-01T07:43:47.690Z</time>
      </trkpt>
      <trkpt lat="44.54066" lon="1.07933">
        <ele>250.298742</ele>
        <time>2022-05-01T07:43:54.696Z</time>
      </trkpt>
      <trkpt lat="44.54066" lon="1.07946">
        <ele>249.819019</ele>
        <time>2022-05-01T07:44:06.697Z</time>
      </trkpt>
      <trkpt lat="44.54063" lon="1.0796">
        <ele>249.29966</ele>
        <time>2022-05-01T07:44:14.693Z</time>
      </trkpt>
      <trkpt lat="44.54059" lon="1.07974">
        <ele>248.739849</ele>
        <time>2022-05-01T07:44:19.697Z</time>
      </trkpt>
      <trkpt lat="44.54055" lon="1.07986">
        <ele>248.25664</ele>
        <time>2022-05-01T07:44:29.710Z</time>
      </trkpt>
      <trkpt lat="44.54051" lon="1.07997">
        <ele>247.794109</ele>
        <time>2022-05-01T07:44:36.684Z</time>
      </trkpt>
      <trkpt lat="44.54045" lon="1.08008">
        <ele>247.308759</ele>
        <time>2022-05-01T07:44:41.686Z</time>
      </trkpt>
      <trkpt lat="44.5404" lon="1.0802">
        <ele>246.817524</ele>
        <time>2022-05-01T07:44:46.693Z</time>
      </trkpt>
      <trkpt lat="44.54035" lon="1.08031">
        <ele>246.325937</ele>
        <time>2022-05-01T07:44:53.697Z</time>
      </trkpt>
      <trkpt lat="44.54027" lon="1.0804">
        <ele>245.832644</ele>
        <time>2022-05-01T07:44:59.697Z</time>
      </trkpt>
      <trkpt lat="44.54019" lon="1.08046">
        <ele>245.340795</ele>
        <time>2022-05-01T07:45:12.687Z</time>
      </trkpt>
      <trkpt lat="44.5401" lon="1.08049">
        <ele>244.850789</ele>
        <time>2022-05-01T07:45:20.694Z</time>
      </trkpt>
      <trkpt lat="44.54" lon="1.08052">
        <ele>244.534671</ele>
        <time>2022-05-01T07:45:27.699Z</time>
      </trkpt>
      <trkpt lat="44.53991" lon="1.08055">
        <ele>244.275276</ele>
        <time>2022-05-01T07:45:37.688Z</time>
      </trkpt>
      <trkpt lat="44.53982" lon="1.08058">
        <ele>244.008603</ele>
        <time>2022-05-01T07:45:46.691Z</time>
      </trkpt>
      <trkpt lat="44.53972" lon="1.08061">
        <ele>243.73239</ele>
        <time>2022-05-01T07:45:52.687Z</time>
      </trkpt>
      <trkpt lat="44.53964" lon="1.08065">
        <ele>243.4776</ele>
        <time>2022-05-01T07:46:00.725Z</time>
      </trkpt>
      <trkpt lat="44.53953" lon="1.08071">
        <ele>243.158366</ele>
        <time>2022-05-01T07:46:07.686Z</time>
      </trkpt>
      <trkpt lat="44.53945" lon="1.08081">
        <ele>242.86398</ele>
        <time>2022-05-01T07:46:12.701Z</time>
      </trkpt>
      <trkpt lat="44.53939" lon="1.0809">
        <ele>242.607162</ele>
        <time>2022-05-01T07:46:17.697Z</time>
      </trkpt>
      <trkpt lat="44.53933" lon="1.08102">
        <ele>242.324675</ele>
        <time>2022-05-01T07:46:24.695Z</time>
      </trkpt>
      <trkpt lat="44.53926" lon="1.08109">
        <ele>242.071292</ele>
        <time>2022-05-01T07:46:31.708Z</time>
      </trkpt>
      <trkpt lat="44.5392" lon="1.08119">
        <ele>241.809729</ele>
        <time>2022-05-01T07:46:39.701Z</time>
      </trkpt>
      <trkpt lat="44.53912" lon="1.08126">
        <ele>241.545894</ele>
        <time>2022-05-01T07:46:44.687Z</time>
      </trkpt>
      <trkpt lat="44.53904" lon="1.08136">
        <ele>241.239531</ele>
        <time>2022-05-01T07:46:51.686Z</time>
      </trkpt>
      <trkpt lat="44.53894" lon="1.08139">
        <ele>240.967983</ele>
        <time>2022-05-01T07:46:57.704Z</time>
      </trkpt>
      <trkpt lat="44.5389" lon="1.08151">
        <ele>240.699973</ele>
        <time>2022-05-01T07:47:10.694Z</time>
      </trkpt>
      <trkpt lat="44.53893" lon="1.08163">
        <ele>240.447023</ele>
        <time>2022-05-01T07:47:18.692Z</time>
      </trkpt>
      <trkpt lat="44.53896" lon="1.08176">
        <ele>240.164577</ele>
        <time>2022-05-01T07:47:25.690Z</time>
      </trkpt>
      <trkpt lat="44.539" lon="1.08189">
        <ele>239.902008</ele>
        <time>2022-05-01T07:47:36.702Z</time>
      </trkpt>
      <trkpt lat="44.53905" lon="1.082">
        <ele>239.713937</ele>
        <time>2022-05-01T07:47:46.698Z</time>
      </trkpt>
      <trkpt lat="44.53914" lon="1.08207">
        <ele>239.769172</ele>
        <time>2022-05-01T07:47:54.696Z</time>
      </trkpt>
      <trkpt lat="44.5392" lon="1.08216">
        <ele>239.821743</ele>
        <time>2022-05-01T07:48:01.692Z</time>
      </trkpt>
      <trkpt lat="44.53926" lon="1.08228">
        <ele>239.881342</ele>
        <time>2022-05-01T07:48:07.688Z</time>
      </trkpt>
      <trkpt lat="44.53926" lon="1.08241">
        <ele>239.932763</ele>
        <time>2022-05-01T07:48:16.682Z</time>
      </trkpt>
      <trkpt lat="44.53931" lon="1.08251">
        <ele>239.986264</ele>
        <time>2022-05-01T07:48:22.702Z</time>
      </trkpt>
      <trkpt lat="44.53939" lon="1.0826">
        <ele>240.041634</ele>
        <time>2022-05-01T07:48:29.695Z</time>
      </trkpt>
      <trkpt lat="44.53942" lon="1.08274">
        <ele>240.098561</ele>
        <time>2022-05-01T07:48:36.683Z</time>
      </trkpt>
      <trkpt lat="44.53941" lon="1.08288">
        <ele>240.157743</ele>
        <time>2022-05-01T07:48:42.706Z</time>
      </trkpt>
      <trkpt lat="44.53942" lon="1.08302">
        <ele>240.214899</ele>
        <time>2022-05-01T07:48:50.692Z</time>
      </trkpt>
      <trkpt lat="44.5394" lon="1.08316">
        <ele>240.273354</ele>
        <time>2022-05-01T07:48:58.719Z</time>
      </trkpt>
      <trkpt lat="44.5394" lon="1.08329">
        <ele>240.324774</ele>
        <time>2022-05-01T07:49:02.689Z</time>
      </trkpt>
      <trkpt lat="44.5394" lon="1.08342">
        <ele>240.378244</ele>
        <time>2022-05-01T07:49:09.698Z</time>
      </trkpt>
      <trkpt lat="44.53937" lon="1.08354">
        <ele>240.430136</ele>
        <time>2022-05-01T07:49:15.685Z</time>
      </trkpt>
      <trkpt lat="44.53936" lon="1.08367">
        <ele>240.483788</ele>
        <time>2022-05-01T07:49:26.693Z</time>
      </trkpt>
      <trkpt lat="44.53936" lon="1.08381">
        <ele>240.539698</ele>
        <time>2022-05-01T07:49:31.703Z</time>
      </trkpt>
      <trkpt lat="44.53935" lon="1.08395">
        <ele>240.595747</ele>
        <time>2022-05-01T07:49:42.691Z</time>
      </trkpt>
      <trkpt lat="44.53933" lon="1.08408">
        <ele>240.652657</ele>
        <time>2022-05-01T07:49:49.697Z</time>
      </trkpt>
      <trkpt lat="44.53928" lon="1.0842">
        <ele>240.707184</ele>
        <time>2022-05-01T07:49:53.695Z</time>
      </trkpt>
      <trkpt lat="44.53929" lon="1.08433">
        <ele>241.012597</ele>
        <time>2022-05-01T07:50:02.685Z</time>
      </trkpt>
      <trkpt lat="44.53931" lon="1.08448">
        <ele>241.556212</ele>
        <time>2022-05-01T07:50:08.686Z</time>
      </trkpt>
      <trkpt lat="44.53929" lon="1.08462">
        <ele>242.048892</ele>
        <time>2022-05-01T07:50:17.708Z</time>
      </trkpt>
      <trkpt lat="44.53929" lon="1.08475">
        <ele>242.520319</ele>
        <time>2022-05-01T07:50:25.697Z</time>
      </trkpt>
      <trkpt lat="44.5393" lon="1.08488">
        <ele>243.000036</ele>
        <time>2022-05-01T07:50:31.687Z</time>
      </trkpt>
      <trkpt lat="44.53932" lon="1.08501">
        <ele>243.46907</ele>
        <time>2022-05-01T07:50:40.699Z</time>
      </trkpt>
      <trkpt lat="44.53932" lon="1.08515">
        <ele>243.969019</ele>
        <time>2022-05-01T07:50:46.688Z</time>
      </trkpt>
      <trkpt lat="44.53931" lon="1.08529">
        <ele>244.462675</ele>
        <time>2022-05-01T07:50:56.701Z</time>
      </trkpt>
      <trkpt lat="44.5393" lon="1.08542">
        <ele>244.931804</ele>
        <time>2022-05-01T07:51:02.685Z</time>
      </trkpt>
      <trkpt lat="44.53931" lon="1.08555">
        <ele>245.401708</ele>
        <time>2022-05-01T07:51:09.688Z</time>
      </trkpt>
      <trkpt lat="44.53931" lon="1.08569">
        <ele>245.915626</ele>
        <time>2022-05-01T07:51:20.678Z</time>
      </trkpt>
      <trkpt lat="44.53931" lon="1.08583">
        <ele>246.422705</ele>
        <time>2022-05-01T07:51:26.698Z</time>
      </trkpt>
      <trkpt lat="44.53933" lon="1.08597">
        <ele>246.929703</ele>
        <time>2022-05-01T07:51:39.682Z</time>
      </trkpt>
      <trkpt lat="44.53933" lon="1.08611">
        <ele>247.404272</ele>
        <time>2022-05-01T07:51:48.684Z</time>
      </trkpt>
      <trkpt lat="44.53931" lon="1.08624">
        <ele>247.892781</ele>
        <time>2022-05-01T07:51:58.676Z</time>
      </trkpt>
      <trkpt lat="44.53928" lon="1.08636">
        <ele>248.352596</ele>
        <time>2022-05-01T07:52:03.693Z</time>
      </trkpt>
      <trkpt lat="44.53926" lon="1.08649">
        <ele>248.822417</ele>
        <time>2022-05-01T07:52:10.700Z</time>
      </trkpt>
      <trkpt lat="44.53923" lon="1.08662">
        <ele>249.305574</ele>
        <time>2022-05-01T07:52:18.690Z</time>
      </trkpt>
      <trkpt lat="44.53924" lon="1.08675">
        <ele>249.731149</ele>
        <time>2022-05-01T07:52:26.684Z</time>
      </trkpt>
      <trkpt lat="44.53918" lon="1.08686">
        <ele>249.703918</ele>
        <time>2022-05-01T07:52:36.695Z</time>
      </trkpt>
      <trkpt lat="44.53917" lon="1.087">
        <ele>249.677195</ele>
        <time>2022-05-01T07:52:44.691Z</time>
      </trkpt>
      <trkpt lat="44.53914" lon="1.08714">
        <ele>249.648898</ele>
        <time>2022-05-01T07:52:52.690Z</time>
      </trkpt>
      <trkpt lat="44.53912" lon="1.08726">
        <ele>249.623731</ele>
        <time>2022-05-01T07:53:00.684Z</time>
      </trkpt>
      <trkpt lat="44.53907" lon="1.08737">
        <ele>249.598906</ele>
        <time>2022-05-01T07:53:08.689Z</time>
      </trkpt>
      <trkpt lat="44.53902" lon="1.08748">
        <ele>249.573575</ele>
        <time>2022-05-01T07:53:13.685Z</time>
      </trkpt>
      <trkpt lat="44.53897" lon="1.0876">
        <ele>249.546553</ele>
        <time>2022-05-01T07:53:21.702Z</time>
      </trkpt>
      <trkpt lat="44.53895" lon="1.08773">
        <ele>249.520801</ele>
        <time>2022-05-01T07:53:28.681Z</time>
      </trkpt>
      <trkpt lat="44.53892" lon="1.08785">
        <ele>249.495799</ele>
        <time>2022-05-01T07:53:35.690Z</time>
      </trkpt>
      <trkpt lat="44.53888" lon="1.08796">
        <ele>249.471033</ele>
        <time>2022-05-01T07:53:44.689Z</time>
      </trkpt>
      <trkpt lat="44.53885" lon="1.0881">
        <ele>249.443514</ele>
        <time>2022-05-01T07:53:55.682Z</time>
      </trkpt>
      <trkpt lat="44.53884" lon="1.08823">
        <ele>249.417484</ele>
        <time>2022-05-01T07:54:02.690Z</time>
      </trkpt>
      <trkpt lat="44.53879" lon="1.08836">
        <ele>249.388551</ele>
        <time>2022-05-01T07:54:09.720Z</time>
      </trkpt>
      <trkpt lat="44.53878" lon="1.0885">
        <ele>249.36103</ele>
        <time>2022-05-01T07:54:14.689Z</time>
      </trkpt>
      <trkpt lat="44.53876" lon="1.08863">
        <ele>249.334802</ele>
        <time>2022-05-01T07:54:20.684Z</time>
      </trkpt>
      <trkpt lat="44.53874" lon="1.08877">
        <ele>249.308473</ele>
        <time>2022-05-01T07:54:27.699Z</time>
      </trkpt>
      <trkpt lat="44.5387" lon="1.08888">
        <ele>249.282398</ele>
        <time>2022-05-01T07:54:35.687Z</time>
      </trkpt>
      <trkpt lat="44.53867" lon="1.08901">
        <ele>249.256294</ele>
        <time>2022-05-01T07:54:42.683Z</time>
      </trkpt>
      <trkpt lat="44.53862" lon="1.08913">
        <ele>249.142756</ele>
        <time>2022-05-01T07:54:50.705Z</time>
      </trkpt>
      <trkpt lat="44.5386" lon="1.08926">
        <ele>248.944175</ele>
        <time>2022-05-01T07:54:57.676Z</time>
      </trkpt>
      <trkpt lat="44.53855" lon="1.08938">
        <ele>248.725765</ele>
        <time>2022-05-01T07:55:05.690Z</time>
      </trkpt>
      <trkpt lat="44.53852" lon="1.08952">
        <ele>248.504146</ele>
        <time>2022-05-01T07:55:16.692Z</time>
      </trkpt>
      <trkpt lat="44.53848" lon="1.08964">
        <ele>248.295372</ele>
        <time>2022-05-01T07:55:23.682Z</time>
      </trkpt>
      <trkpt lat="44.53842" lon="1.08975">
        <ele>248.085728</ele>
        <time>2022-05-01T07:55:31.677Z</time>
      </trkpt>
      <trkpt lat="44.53839" lon="1.08988">
        <ele>247.880147</ele>
        <time>2022-05-01T07:55:42.681Z</time>
      </trkpt>
      <trkpt lat="44.53837" lon="1.09">
        <ele>247.676779</ele>
        <time>2022-05-01T07:55:51.677Z</time>
      </trkpt>
      <trkpt lat="44.53842" lon="1.09012">
        <ele>247.467285</ele>
        <time>2022-05-01T07:55:57.703Z</time>
      </trkpt>
      <trkpt lat="44.53848" lon="1.09022">
        <ele>247.266772</ele>
        <time>2022-05-01T07:56:04.682Z</time>
      </trkpt>
      <trkpt lat="44.53851" lon="1.09034">
        <ele>247.071975</ele>
        <time>2022-05-01T07:56:14.689Z</time>
      </trkpt>
      <trkpt lat="44.53853" lon="1.09048">
        <ele>246.849348</ele>
        <time>2022-05-01T07:56:20.692Z</time>
      </trkpt>
      <trkpt lat="44.53855" lon="1.09061">
        <ele>246.64052</ele>
        <time>2022-05-01T07:56:27.680Z</time>
      </trkpt>
      <trkpt lat="44.53856" lon="1.09075">
        <ele>246.427829</ele>
        <time>2022-05-01T07:56:40.691Z</time>
      </trkpt>
      <trkpt lat="44.53862" lon="1.09085">
        <ele>246.227384</ele>
        <time>2022-05-01T07:56:46.682Z</time>
      </trkpt>
      <trkpt lat="44.5387" lon="1.09093">
        <ele>246.008707</ele>
        <time>2022-05-01T07:56:54.706Z</time>
      </trkpt>
      <trkpt lat="44.53878" lon="1.09101">
        <ele>245.802483</ele>
        <time>2022-05-01T07:57:02.671Z</time>
      </trkpt>
      <trkpt lat="44.53882" lon="1.09113">
        <ele>245.598346</ele>
        <time>2022-05-01T07:57:10.705Z</time>
      </trkpt>
      <trkpt lat="44.53886" lon="1.09125">
        <ele>245.376045</ele>
        <time>2022-05-01T07:57:19.701Z</time>
      </trkpt>
      <trkpt lat="44.53889" lon="1.09139">
        <ele>245.567136</ele>
        <time>2022-05-01T07:57:28.673Z</time>
      </trkpt>
      <trkpt lat="44.53895" lon="1.09148">
        <ele>245.836256</ele>
        <time>2022-05-01T07:57:33.695Z</time>
      </trkpt>
      <trkpt lat="44.53901" lon="1.09158">
        <ele>246.107053</ele>
        <time>2022-05-01T07:57:40.676Z</time>
      </trkpt>
      <trkpt lat="44.53906" lon="1.09169">
        <ele>246.391067</ele>
        <time>2022-05-01T07:57:47.701Z</time>
      </trkpt>
      <trkpt lat="44.5391" lon="1.0918">
        <ele>246.656669</ele>
        <time>2022-05-01T07:57:56.687Z</time>
      </trkpt>
      <trkpt lat="44.53911" lon="1.09193">
        <ele>246.922003</ele>
        <time>2022-05-01T07:58:08.695Z</time>
      </trkpt>
      <trkpt lat="44.53913" lon="1.09205">
        <ele>247.188406</ele>
        <time>2022-05-01T07:58:17.691Z</time>
      </trkpt>
      <trkpt lat="44.53915" lon="1.09219">
        <ele>247.488756</ele>
        <time>2022-05-01T07:58:26.692Z</time>
      </trkpt>
      <trkpt lat="44.53916" lon="1.09233">
        <ele>247.775739</ele>
        <time>2022-05-01T07:58:37.686Z</time>
      </trkpt>
      <trkpt lat="44.5392" lon="1.09245">
        <ele>248.054668</ele>
        <time>2022-05-01T07:58:43.687Z</time>
      </trkpt>
      <trkpt lat="44.53925" lon="1.09257">
        <ele>248.350634</ele>
        <time>2022-05-01T07:58:50.686Z</time>
      </trkpt>
      <trkpt lat="44.53929" lon="1.0927">
        <ele>248.645759</ele>
        <time>2022-05-01T07:58:58.687Z</time>
      </trkpt>
      <trkpt lat="44.53931" lon="1.09284">
        <ele>248.944314</ele>
        <time>2022-05-01T07:59:03.685Z</time>
      </trkpt>
      <trkpt lat="44.53935" lon="1.09297">
        <ele>249.236384</ele>
        <time>2022-05-01T07:59:10.683Z</time>
      </trkpt>
      <trkpt lat="44.53939" lon="1.09309">
        <ele>249.514241</ele>
        <time>2022-05-01T07:59:18.718Z</time>
      </trkpt>
      <trkpt lat="44.53944" lon="1.09321">
        <ele>249.806199</ele>
        <time>2022-05-01T07:59:27.689Z</time>
      </trkpt>
      <trkpt lat="44.53948" lon="1.09332">
        <ele>250.081304</ele>
        <time>2022-05-01T07:59:34.709Z</time>
      </trkpt>
      <trkpt lat="44.53952" lon="1.09344">
        <ele>250.354</ele>
        <time>2022-05-01T07:59:40.697Z</time>
      </trkpt>
      <trkpt lat="44.53956" lon="1.09358">
        <ele>250.70662</ele>
        <time>2022-05-01T07:59:46.675Z</time>
      </trkpt>
      <trkpt lat="44.53959" lon="1.0937">
        <ele>251.292698</ele>
        <time>2022-05-01T07:59:54.698Z</time>
      </trkpt>
      <trkpt lat="44.53961" lon="1.09384">
        <ele>251.934333</ele>
        <time>2022-05-01T08:00:05.689Z</time>
      </trkpt>
      <trkpt lat="44.53964" lon="1.09397">
        <ele>252.575848</ele>
        <time>2022-05-01T08:00:14.682Z</time>
      </trkpt>
      <trkpt lat="44.53969" lon="1.09408">
        <ele>253.162039</ele>
        <time>2022-05-01T08:00:24.707Z</time>
      </trkpt>
      <trkpt lat="44.5397" lon="1.09422">
        <ele>253.788749</ele>
        <time>2022-05-01T08:00:33.685Z</time>
      </trkpt>
      <trkpt lat="44.53971" lon="1.09436">
        <ele>254.458734</ele>
        <time>2022-05-01T08:00:39.686Z</time>
      </trkpt>
      <trkpt lat="44.53973" lon="1.0945">
        <ele>255.110574</ele>
        <time>2022-05-01T08:00:49.679Z</time>
      </trkpt>
      <trkpt lat="44.53975" lon="1.09463">
        <ele>255.702399</ele>
        <time>2022-05-01T08:00:54.705Z</time>
      </trkpt>
      <trkpt lat="44.53981" lon="1.09473">
        <ele>256.319691</ele>
        <time>2022-05-01T08:01:00.692Z</time>
      </trkpt>
      <trkpt lat="44.53985" lon="1.09485">
        <ele>256.912572</ele>
        <time>2022-05-01T08:01:06.690Z</time>
      </trkpt>
      <trkpt lat="44.53983" lon="1.09498">
        <ele>257.532427</ele>
        <time>2022-05-01T08:01:13.707Z</time>
      </trkpt>
      <trkpt lat="44.53981" lon="1.09511">
        <ele>258.12797</ele>
        <time>2022-05-01T08:01:20.685Z</time>
      </trkpt>
      <trkpt lat="44.53979" lon="1.09524">
        <ele>258.72535</ele>
        <time>2022-05-01T08:01:29.682Z</time>
      </trkpt>
      <trkpt lat="44.53973" lon="1.09533">
        <ele>259.320562</ele>
        <time>2022-05-01T08:01:35.688Z</time>
      </trkpt>
      <trkpt lat="44.53974" lon="1.09546">
        <ele>259.926188</ele>
        <time>2022-05-01T08:01:46.682Z</time>
      </trkpt>
      <trkpt lat="44.53969" lon="1.09558">
        <ele>260.543593</ele>
        <time>2022-05-01T08:01:52.687Z</time>
      </trkpt>
      <trkpt lat="44.53963" lon="1.09568">
        <ele>261.137469</ele>
        <time>2022-05-01T08:02:02.694Z</time>
      </trkpt>
      <trkpt lat="44.53958" lon="1.0958">
        <ele>261.787754</ele>
        <time>2022-05-01T08:02:11.685Z</time>
      </trkpt>
      <trkpt lat="44.53953" lon="1.09592">
        <ele>262.477657</ele>
        <time>2022-05-01T08:02:21.684Z</time>
      </trkpt>
      <trkpt lat="44.53947" lon="1.09602">
        <ele>263.393764</ele>
        <time>2022-05-01T08:02:28.693Z</time>
      </trkpt>
      <trkpt lat="44.53942" lon="1.09613">
        <ele>264.28577</ele>
        <time>2022-05-01T08:02:37.681Z</time>
      </trkpt>
      <trkpt lat="44.53935" lon="1.09622">
        <ele>265.176859</ele>
        <time>2022-05-01T08:02:48.686Z</time>
      </trkpt>
      <trkpt lat="44.53927" lon="1.09629">
        <ele>266.095553</ele>
        <time>2022-05-01T08:02:58.679Z</time>
      </trkpt>
      <trkpt lat="44.5392" lon="1.0964">
        <ele>267.060909</ele>
        <time>2022-05-01T08:03:15.686Z</time>
      </trkpt>
      <trkpt lat="44.53913" lon="1.0965">
        <ele>267.95819</ele>
        <time>2022-05-01T08:03:25.697Z</time>
      </trkpt>
      <trkpt lat="44.53906" lon="1.09658">
        <ele>268.879744</ele>
        <time>2022-05-01T08:03:32.710Z</time>
      </trkpt>
      <trkpt lat="44.539" lon="1.09669">
        <ele>269.807149</ele>
        <time>2022-05-01T08:03:37.690Z</time>
      </trkpt>
      <trkpt lat="44.53893" lon="1.09679">
        <ele>270.717192</ele>
        <time>2022-05-01T08:03:44.683Z</time>
      </trkpt>
      <trkpt lat="44.53888" lon="1.0969">
        <ele>271.606115</ele>
        <time>2022-05-01T08:03:51.683Z</time>
      </trkpt>
      <trkpt lat="44.53882" lon="1.09701">
        <ele>272.52505</ele>
        <time>2022-05-01T08:03:59.685Z</time>
      </trkpt>
      <trkpt lat="44.53876" lon="1.09711">
        <ele>273.401268</ele>
        <time>2022-05-01T08:04:07.689Z</time>
      </trkpt>
      <trkpt lat="44.5387" lon="1.09721">
        <ele>274.316231</ele>
        <time>2022-05-01T08:04:15.689Z</time>
      </trkpt>
      <trkpt lat="44.53861" lon="1.09728">
        <ele>275.278048</ele>
        <time>2022-05-01T08:04:22.702Z</time>
      </trkpt>
      <trkpt lat="44.53856" lon="1.09739">
        <ele>276.17951</ele>
        <time>2022-05-01T08:04:30.696Z</time>
      </trkpt>
      <trkpt lat="44.53851" lon="1.0975">
        <ele>277.03818</ele>
        <time>2022-05-01T08:04:38.679Z</time>
      </trkpt>
      <trkpt lat="44.53845" lon="1.09761">
        <ele>277.992272</ele>
        <time>2022-05-01T08:04:46.721Z</time>
      </trkpt>
      <trkpt lat="44.53838" lon="1.0977">
        <ele>278.86833</ele>
        <time>2022-05-01T08:04:53.696Z</time>
      </trkpt>
      <trkpt lat="44.53835" lon="1.09782">
        <ele>279.261835</ele>
        <time>2022-05-01T08:05:00.707Z</time>
      </trkpt>
      <trkpt lat="44.5383" lon="1.09796">
        <ele>279.334505</ele>
        <time>2022-05-01T08:05:09.687Z</time>
      </trkpt>
      <trkpt lat="44.53823" lon="1.09807">
        <ele>279.407214</ele>
        <time>2022-05-01T08:05:16.676Z</time>
      </trkpt>
      <trkpt lat="44.53817" lon="1.09816">
        <ele>279.47292</ele>
        <time>2022-05-01T08:05:26.693Z</time>
      </trkpt>
      <trkpt lat="44.53809" lon="1.09826">
        <ele>279.541624</ele>
        <time>2022-05-01T08:05:33.671Z</time>
      </trkpt>
      <trkpt lat="44.53802" lon="1.09836">
        <ele>279.611329</ele>
        <time>2022-05-01T08:05:40.674Z</time>
      </trkpt>
      <trkpt lat="44.53795" lon="1.09846">
        <ele>279.680318</ele>
        <time>2022-05-01T08:05:48.704Z</time>
      </trkpt>
      <trkpt lat="44.53787" lon="1.09855">
        <ele>279.752048</ele>
        <time>2022-05-01T08:05:54.701Z</time>
      </trkpt>
      <trkpt lat="44.53783" lon="1.09867">
        <ele>279.817194</ele>
        <time>2022-05-01T08:06:02.689Z</time>
      </trkpt>
      <trkpt lat="44.5378" lon="1.0988">
        <ele>279.883252</ele>
        <time>2022-05-01T08:06:11.682Z</time>
      </trkpt>
      <trkpt lat="44.5378" lon="1.09893">
        <ele>279.949497</ele>
        <time>2022-05-01T08:06:24.686Z</time>
      </trkpt>
      <trkpt lat="44.53779" lon="1.09906">
        <ele>280.01158</ele>
        <time>2022-05-01T08:06:33.691Z</time>
      </trkpt>
      <trkpt lat="44.53778" lon="1.09919">
        <ele>280.077939</ele>
        <time>2022-05-01T08:06:44.690Z</time>
      </trkpt>
      <trkpt lat="44.53777" lon="1.09933">
        <ele>280.144771</ele>
        <time>2022-05-01T08:06:52.687Z</time>
      </trkpt>
      <trkpt lat="44.53777" lon="1.09947">
        <ele>280.212561</ele>
        <time>2022-05-01T08:07:01.683Z</time>
      </trkpt>
      <trkpt lat="44.53775" lon="1.09959">
        <ele>280.277672</ele>
        <time>2022-05-01T08:07:09.694Z</time>
      </trkpt>
      <trkpt lat="44.53777" lon="1.09973">
        <ele>280.348648</ele>
        <time>2022-05-01T08:07:17.690Z</time>
      </trkpt>
      <trkpt lat="44.53778" lon="1.09987">
        <ele>280.413538</ele>
        <time>2022-05-01T08:07:23.691Z</time>
      </trkpt>
      <trkpt lat="44.53778" lon="1.1">
        <ele>280.670383</ele>
        <time>2022-05-01T08:07:31.695Z</time>
      </trkpt>
      <trkpt lat="44.53781" lon="1.10014">
        <ele>281.575287</ele>
        <time>2022-05-01T08:07:38.705Z</time>
      </trkpt>
      <trkpt lat="44.53781" lon="1.10028">
        <ele>282.474122</ele>
        <time>2022-05-01T08:07:48.708Z</time>
      </trkpt>
      <trkpt lat="44.5378" lon="1.10042">
        <ele>283.321907</ele>
        <time>2022-05-01T08:07:55.704Z</time>
      </trkpt>
      <trkpt lat="44.53781" lon="1.10055">
        <ele>284.189307</ele>
        <time>2022-05-01T08:08:01.684Z</time>
      </trkpt>
      <trkpt lat="44.5378" lon="1.10069">
        <ele>285.022858</ele>
        <time>2022-05-01T08:08:07.688Z</time>
      </trkpt>
      <trkpt lat="44.53781" lon="1.10082">
        <ele>285.830051</ele>
        <time>2022-05-01T08:08:16.689Z</time>
      </trkpt>
      <trkpt lat="44.5378" lon="1.10095">
        <ele>286.673486</ele>
        <time>2022-05-01T08:08:25.692Z</time>
      </trkpt>
      <trkpt lat="44.53779" lon="1.10109">
        <ele>287.559565</ele>
        <time>2022-05-01T08:08:32.689Z</time>
      </trkpt>
      <trkpt lat="44.53778" lon="1.10124">
        <ele>288.503683</ele>
        <time>2022-05-01T08:08:38.682Z</time>
      </trkpt>
      <trkpt lat="44.53778" lon="1.10138">
        <ele>289.384114</ele>
        <time>2022-05-01T08:08:46.683Z</time>
      </trkpt>
      <trkpt lat="44.53779" lon="1.10152">
        <ele>290.251748</ele>
        <time>2022-05-01T08:08:53.691Z</time>
      </trkpt>
      <trkpt lat="44.53778" lon="1.10165">
        <ele>291.066667</ele>
        <time>2022-05-01T08:09:00.681Z</time>
      </trkpt>
      <trkpt lat="44.53776" lon="1.10178">
        <ele>291.884229</ele>
        <time>2022-05-01T08:09:09.691Z</time>
      </trkpt>
      <trkpt lat="44.53779" lon="1.10191">
        <ele>292.749488</ele>
        <time>2022-05-01T08:09:20.677Z</time>
      </trkpt>
      <trkpt lat="44.53777" lon="1.10205">
        <ele>293.647871</ele>
        <time>2022-05-01T08:09:26.679Z</time>
      </trkpt>
      <trkpt lat="44.53778" lon="1.10218">
        <ele>294.433699</ele>
        <time>2022-05-01T08:09:34.683Z</time>
      </trkpt>
      <trkpt lat="44.53778" lon="1.10232">
        <ele>295.307589</ele>
        <time>2022-05-01T08:09:41.705Z</time>
      </trkpt>
      <trkpt lat="44.5378" lon="1.10245">
        <ele>296.119959</ele>
        <time>2022-05-01T08:09:47.684Z</time>
      </trkpt>
      <trkpt lat="44.5378" lon="1.10257">
        <ele>296.136647</ele>
        <time>2022-05-01T08:09:53.709Z</time>
      </trkpt>
      <trkpt lat="44.53777" lon="1.10271">
        <ele>296.052901</ele>
        <time>2022-05-01T08:10:01.686Z</time>
      </trkpt>
      <trkpt lat="44.53778" lon="1.10284">
        <ele>295.967655</ele>
        <time>2022-05-01T08:10:11.688Z</time>
      </trkpt>
      <trkpt lat="44.53782" lon="1.10297">
        <ele>295.885536</ele>
        <time>2022-05-01T08:10:18.681Z</time>
      </trkpt>
      <trkpt lat="44.53781" lon="1.1031">
        <ele>295.807641</ele>
        <time>2022-05-01T08:10:25.679Z</time>
      </trkpt>
      <trkpt lat="44.53784" lon="1.10324">
        <ele>295.717617</ele>
        <time>2022-05-01T08:10:32.692Z</time>
      </trkpt>
      <trkpt lat="44.53785" lon="1.10338">
        <ele>295.632972</ele>
        <time>2022-05-01T08:10:41.689Z</time>
      </trkpt>
      <trkpt lat="44.53787" lon="1.10351">
        <ele>295.554171</ele>
        <time>2022-05-01T08:10:47.682Z</time>
      </trkpt>
      <trkpt lat="44.53792" lon="1.10362">
        <ele>295.473145</ele>
        <time>2022-05-01T08:10:55.683Z</time>
      </trkpt>
      <trkpt lat="44.53798" lon="1.10374">
        <ele>295.386112</ele>
        <time>2022-05-01T08:11:02.684Z</time>
      </trkpt>
      <trkpt lat="44.53802" lon="1.10385">
        <ele>295.309621</ele>
        <time>2022-05-01T08:11:08.707Z</time>
      </trkpt>
      <trkpt lat="44.53806" lon="1.10398">
        <ele>295.22149</ele>
        <time>2022-05-01T08:11:15.681Z</time>
      </trkpt>
      <trkpt lat="44.53811" lon="1.10412">
        <ele>295.13099</ele>
        <time>2022-05-01T08:11:21.676Z</time>
      </trkpt>
      <trkpt lat="44.53814" lon="1.10424">
        <ele>295.051676</ele>
        <time>2022-05-01T08:11:29.692Z</time>
      </trkpt>
      <trkpt lat="44.53817" lon="1.10437">
        <ele>294.966965</ele>
        <time>2022-05-01T08:11:37.685Z</time>
      </trkpt>
      <trkpt lat="44.53821" lon="1.1045">
        <ele>294.881682</ele>
        <time>2022-05-01T08:11:45.691Z</time>
      </trkpt>
      <trkpt lat="44.53823" lon="1.10462">
        <ele>294.803696</ele>
        <time>2022-05-01T08:11:52.684Z</time>
      </trkpt>
      <trkpt lat="44.53825" lon="1.10475">
        <ele>294.724896</ele>
        <time>2022-05-01T08:12:00.694Z</time>
      </trkpt>
      <trkpt lat="44.53828" lon="1.10489">
        <ele>294.443387</ele>
        <time>2022-05-01T08:12:07.679Z</time>
      </trkpt>
      <trkpt lat="44.53833" lon="1.10499">
        <ele>293.948604</ele>
        <time>2022-05-01T08:12:14.675Z</time>
      </trkpt>
      <trkpt lat="44.53835" lon="1.10512">
        <ele>293.43477</ele>
        <time>2022-05-01T08:12:21.694Z</time>
      </trkpt>
      <trkpt lat="44.53836" lon="1.10525">
        <ele>292.906642</ele>
        <time>2022-05-01T08:12:27.679Z</time>
      </trkpt>
      <trkpt lat="44.53834" lon="1.10539">
        <ele>292.371893</ele>
        <time>2022-05-01T08:12:34.704Z</time>
      </trkpt>
      <trkpt lat="44.53832" lon="1.10552">
        <ele>291.85939</ele>
        <time>2022-05-01T08:12:43.688Z</time>
      </trkpt>
      <trkpt lat="44.53827" lon="1.10564">
        <ele>291.309724</ele>
        <time>2022-05-01T08:12:52.687Z</time>
      </trkpt>
      <trkpt lat="44.53835" lon="1.10572">
        <ele>290.768475</ele>
        <time>2022-05-01T08:13:06.671Z</time>
      </trkpt>
      <trkpt lat="44.53844" lon="1.10574">
        <ele>290.259568</ele>
        <time>2022-05-01T08:13:13.716Z</time>
      </trkpt>
      <trkpt lat="44.53853" lon="1.10575">
        <ele>289.756127</ele>
        <time>2022-05-01T08:13:18.700Z</time>
      </trkpt>
      <trkpt lat="44.53862" lon="1.10578">
        <ele>289.248299</ele>
        <time>2022-05-01T08:13:24.693Z</time>
      </trkpt>
      <trkpt lat="44.53871" lon="1.1058">
        <ele>288.742974</ele>
        <time>2022-05-01T08:13:29.686Z</time>
      </trkpt>
      <trkpt lat="44.5388" lon="1.10584">
        <ele>288.221717</ele>
        <time>2022-05-01T08:13:34.699Z</time>
      </trkpt>
      <trkpt lat="44.53888" lon="1.10589">
        <ele>287.721885</ele>
        <time>2022-05-01T08:13:40.700Z</time>
      </trkpt>
      <trkpt lat="44.53897" lon="1.10595">
        <ele>287.188634</ele>
        <time>2022-05-01T08:13:45.683Z</time>
      </trkpt>
      <trkpt lat="44.53907" lon="1.106">
        <ele>286.63661</ele>
        <time>2022-05-01T08:13:50.692Z</time>
      </trkpt>
      <trkpt lat="44.53915" lon="1.10595">
        <ele>286.131695</ele>
        <time>2022-05-01T08:13:58.703Z</time>
      </trkpt>
      <trkpt lat="44.53925" lon="1.1059">
        <ele>285.556877</ele>
        <time>2022-05-01T08:14:05.684Z</time>
      </trkpt>
      <trkpt lat="44.53935" lon="1.10592">
        <ele>285.005654</ele>
        <time>2022-05-01T08:14:10.695Z</time>
      </trkpt>
      <trkpt lat="44.53945" lon="1.10596">
        <ele>284.469482</ele>
        <time>2022-05-01T08:14:15.689Z</time>
      </trkpt>
      <trkpt lat="44.53955" lon="1.10593">
        <ele>283.979929</ele>
        <time>2022-05-01T08:14:22.699Z</time>
      </trkpt>
      <trkpt lat="44.53964" lon="1.10591">
        <ele>283.543932</ele>
        <time>2022-05-01T08:14:31.682Z</time>
      </trkpt>
      <trkpt lat="44.53973" lon="1.10584">
        <ele>283.064237</ele>
        <time>2022-05-01T08:15:12.695Z</time>
      </trkpt>
      <trkpt lat="44.53982" lon="1.1058">
        <ele>282.611828</ele>
        <time>2022-05-01T08:15:17.690Z</time>
      </trkpt>
      <trkpt lat="44.53993" lon="1.10578">
        <ele>282.115217</ele>
        <time>2022-05-01T08:15:22.679Z</time>
      </trkpt>
      <trkpt lat="44.54003" lon="1.1058">
        <ele>281.630331</ele>
        <time>2022-05-01T08:15:27.674Z</time>
      </trkpt>
      <trkpt lat="44.54013" lon="1.10581">
        <ele>281.160943</ele>
        <time>2022-05-01T08:15:32.684Z</time>
      </trkpt>
      <trkpt lat="44.54022" lon="1.10581">
        <ele>280.734814</ele>
        <time>2022-05-01T08:15:37.682Z</time>
      </trkpt>
      <trkpt lat="44.54031" lon="1.10581">
        <ele>280.27536</ele>
        <time>2022-05-01T08:15:43.705Z</time>
      </trkpt>
      <trkpt lat="44.54043" lon="1.1058">
        <ele>279.735579</ele>
        <time>2022-05-01T08:15:50.695Z</time>
      </trkpt>
      <trkpt lat="44.54051" lon="1.10584">
        <ele>279.300073</ele>
        <time>2022-05-01T08:16:30.686Z</time>
      </trkpt>
      <trkpt lat="44.5406" lon="1.10591">
        <ele>278.84436</ele>
        <time>2022-05-01T08:16:35.689Z</time>
      </trkpt>
      <trkpt lat="44.54068" lon="1.10598">
        <ele>278.392853</ele>
        <time>2022-05-01T08:16:40.682Z</time>
      </trkpt>
      <trkpt lat="44.54074" lon="1.10609">
        <ele>277.931846</ele>
        <time>2022-05-01T08:16:46.687Z</time>
      </trkpt>
      <trkpt lat="44.54082" lon="1.10618">
        <ele>277.435623</ele>
        <time>2022-05-01T08:16:52.700Z</time>
      </trkpt>
      <trkpt lat="44.5409" lon="1.10626">
        <ele>276.985062</ele>
        <time>2022-05-01T08:16:58.674Z</time>
      </trkpt>
      <trkpt lat="44.54099" lon="1.1063">
        <ele>276.532808</ele>
        <time>2022-05-01T08:17:06.690Z</time>
      </trkpt>
      <trkpt lat="44.54107" lon="1.1064">
        <ele>275.935848</ele>
        <time>2022-05-01T08:17:15.686Z</time>
      </trkpt>
      <trkpt lat="44.54112" lon="1.1065">
        <ele>275.274159</ele>
        <time>2022-05-01T08:17:22.691Z</time>
      </trkpt>
      <trkpt lat="44.54118" lon="1.10661">
        <ele>274.557379</ele>
        <time>2022-05-01T08:17:29.692Z</time>
      </trkpt>
      <trkpt lat="44.54123" lon="1.10672">
        <ele>273.872765</ele>
        <time>2022-05-01T08:17:36.688Z</time>
      </trkpt>
      <trkpt lat="44.54125" lon="1.10684">
        <ele>273.188539</ele>
        <time>2022-05-01T08:17:45.687Z</time>
      </trkpt>
      <trkpt lat="44.54129" lon="1.10697">
        <ele>272.454489</ele>
        <time>2022-05-01T08:17:51.694Z</time>
      </trkpt>
      <trkpt lat="44.54133" lon="1.10709">
        <ele>271.770913</ele>
        <time>2022-05-01T08:17:57.674Z</time>
      </trkpt>
      <trkpt lat="44.54131" lon="1.10723">
        <ele>271.059106</ele>
        <time>2022-05-01T08:18:05.689Z</time>
      </trkpt>
      <trkpt lat="44.54133" lon="1.10737">
        <ele>270.337026</ele>
        <time>2022-05-01T08:18:12.705Z</time>
      </trkpt>
      <trkpt lat="44.54137" lon="1.1075">
        <ele>269.585639</ele>
        <time>2022-05-01T08:18:19.679Z</time>
      </trkpt>
      <trkpt lat="44.54138" lon="1.10763">
        <ele>268.883356</ele>
        <time>2022-05-01T08:18:27.689Z</time>
      </trkpt>
      <trkpt lat="44.54141" lon="1.10776">
        <ele>268.174024</ele>
        <time>2022-05-01T08:18:34.691Z</time>
      </trkpt>
      <trkpt lat="44.54146" lon="1.10788">
        <ele>267.448538</ele>
        <time>2022-05-01T08:18:41.678Z</time>
      </trkpt>
      <trkpt lat="44.54152" lon="1.10799">
        <ele>266.689215</ele>
        <time>2022-05-01T08:18:47.687Z</time>
      </trkpt>
      <trkpt lat="44.54161" lon="1.10805">
        <ele>266.005354</ele>
        <time>2022-05-01T08:18:55.688Z</time>
      </trkpt>
      <trkpt lat="44.54169" lon="1.10814">
        <ele>265.232182</ele>
        <time>2022-05-01T08:19:02.684Z</time>
      </trkpt>
      <trkpt lat="44.54178" lon="1.1082">
        <ele>264.519677</ele>
        <time>2022-05-01T08:19:09.690Z</time>
      </trkpt>
      <trkpt lat="44.54187" lon="1.10824">
        <ele>263.820339</ele>
        <time>2022-05-01T08:19:17.678Z</time>
      </trkpt>
      <trkpt lat="44.54196" lon="1.1083">
        <ele>263.098346</ele>
        <time>2022-05-01T08:19:24.690Z</time>
      </trkpt>
      <trkpt lat="44.54204" lon="1.10838">
        <ele>263.055417</ele>
        <time>2022-05-01T08:19:33.714Z</time>
      </trkpt>
      <trkpt lat="44.54213" lon="1.10844">
        <ele>263.063033</ele>
        <time>2022-05-01T08:19:40.686Z</time>
      </trkpt>
      <trkpt lat="44.54223" lon="1.10847">
        <ele>263.07096</ele>
        <time>2022-05-01T08:19:47.704Z</time>
      </trkpt>
      <trkpt lat="44.54232" lon="1.10855">
        <ele>263.079237</ele>
        <time>2022-05-01T08:19:52.688Z</time>
      </trkpt>
      <trkpt lat="44.54242" lon="1.10859">
        <ele>263.087134</ele>
        <time>2022-05-01T08:19:59.691Z</time>
      </trkpt>
      <trkpt lat="44.5425" lon="1.10863">
        <ele>263.094306</ele>
        <time>2022-05-01T08:20:06.684Z</time>
      </trkpt>
      <trkpt lat="44.54259" lon="1.10867">
        <ele>263.10164</ele>
        <time>2022-05-01T08:20:13.691Z</time>
      </trkpt>
      <trkpt lat="44.54268" lon="1.10873">
        <ele>263.108993</ele>
        <time>2022-05-01T08:20:21.692Z</time>
      </trkpt>
      <trkpt lat="44.54277" lon="1.10878">
        <ele>263.116518</ele>
        <time>2022-05-01T08:20:28.677Z</time>
      </trkpt>
      <trkpt lat="44.54287" lon="1.10879">
        <ele>263.124515</ele>
        <time>2022-05-01T08:20:36.684Z</time>
      </trkpt>
      <trkpt lat="44.54297" lon="1.10873">
        <ele>263.132575</ele>
        <time>2022-05-01T08:20:44.679Z</time>
      </trkpt>
      <trkpt lat="44.54306" lon="1.1087">
        <ele>263.140049</ele>
        <time>2022-05-01T08:20:49.698Z</time>
      </trkpt>
      <trkpt lat="44.54315" lon="1.10865">
        <ele>263.147451</ele>
        <time>2022-05-01T08:20:57.679Z</time>
      </trkpt>
      <trkpt lat="44.54324" lon="1.10859">
        <ele>263.154991</ele>
        <time>2022-05-01T08:21:04.701Z</time>
      </trkpt>
      <trkpt lat="44.54333" lon="1.10855">
        <ele>263.162236</ele>
        <time>2022-05-01T08:21:11.692Z</time>
      </trkpt>
      <trkpt lat="44.54342" lon="1.10851">
        <ele>263.169862</ele>
        <time>2022-05-01T08:21:19.683Z</time>
      </trkpt>
      <trkpt lat="44.54351" lon="1.1085">
        <ele>263.177002</ele>
        <time>2022-05-01T08:21:25.693Z</time>
      </trkpt>
      <trkpt lat="44.54361" lon="1.10851">
        <ele>263.184461</ele>
        <time>2022-05-01T08:21:33.685Z</time>
      </trkpt>
      <trkpt lat="44.5437" lon="1.10848">
        <ele>263.112184</ele>
        <time>2022-05-01T08:21:41.681Z</time>
      </trkpt>
      <trkpt lat="44.54379" lon="1.10844">
        <ele>262.975235</ele>
        <time>2022-05-01T08:21:48.679Z</time>
      </trkpt>
      <trkpt lat="44.54388" lon="1.10839">
        <ele>262.845843</ele>
        <time>2022-05-01T08:21:55.689Z</time>
      </trkpt>
      <trkpt lat="44.54396" lon="1.10835">
        <ele>262.712749</ele>
        <time>2022-05-01T08:22:02.696Z</time>
      </trkpt>
      <trkpt lat="44.54407" lon="1.10827">
        <ele>262.536296</ele>
        <time>2022-05-01T08:29:04.691Z</time>
      </trkpt>
      <trkpt lat="44.54413" lon="1.10854">
        <ele>262.245759</ele>
        <time>2022-05-01T08:40:11.687Z</time>
      </trkpt>
      <trkpt lat="44.54409" lon="1.10867">
        <ele>262.106082</ele>
        <time>2022-05-01T08:40:18.689Z</time>
      </trkpt>
      <trkpt lat="44.54405" lon="1.10879">
        <ele>261.969572</ele>
        <time>2022-05-01T08:40:26.683Z</time>
      </trkpt>
      <trkpt lat="44.54405" lon="1.10893">
        <ele>261.827155</ele>
        <time>2022-05-01T08:40:34.685Z</time>
      </trkpt>
      <trkpt lat="44.54403" lon="1.10907">
        <ele>261.686291</ele>
        <time>2022-05-01T08:40:43.680Z</time>
      </trkpt>
      <trkpt lat="44.54402" lon="1.1092">
        <ele>261.547849</ele>
        <time>2022-05-01T08:40:53.701Z</time>
      </trkpt>
      <trkpt lat="44.54401" lon="1.10933">
        <ele>261.418264</ele>
        <time>2022-05-01T08:41:00.689Z</time>
      </trkpt>
      <trkpt lat="44.544" lon="1.10947">
        <ele>261.269594</ele>
        <time>2022-05-01T08:41:07.677Z</time>
      </trkpt>
      <trkpt lat="44.54399" lon="1.1096">
        <ele>261.135964</ele>
        <time>2022-05-01T08:41:15.685Z</time>
      </trkpt>
      <trkpt lat="44.54395" lon="1.10973">
        <ele>260.989069</ele>
        <time>2022-05-01T08:41:24.680Z</time>
      </trkpt>
      <trkpt lat="44.54398" lon="1.10986">
        <ele>260.855417</ele>
        <time>2022-05-01T08:41:31.683Z</time>
      </trkpt>
      <trkpt lat="44.54398" lon="1.10999">
        <ele>260.713973</ele>
        <time>2022-05-01T08:41:39.677Z</time>
      </trkpt>
      <trkpt lat="44.544" lon="1.11012">
        <ele>260.574298</ele>
        <time>2022-05-01T08:41:48.677Z</time>
      </trkpt>
      <trkpt lat="44.54404" lon="1.11025">
        <ele>260.404036</ele>
        <time>2022-05-01T08:41:57.685Z</time>
      </trkpt>
      <trkpt lat="44.54406" lon="1.11037">
        <ele>260.238107</ele>
        <time>2022-05-01T08:42:06.680Z</time>
      </trkpt>
      <trkpt lat="44.54404" lon="1.11051">
        <ele>260.067723</ele>
        <time>2022-05-01T08:42:15.684Z</time>
      </trkpt>
      <trkpt lat="44.54406" lon="1.11063">
        <ele>259.907994</ele>
        <time>2022-05-01T08:42:35.685Z</time>
      </trkpt>
      <trkpt lat="44.54412" lon="1.11088">
        <ele>259.56893</ele>
        <time>2022-05-01T08:43:30.700Z</time>
      </trkpt>
      <trkpt lat="44.54422" lon="1.11087">
        <ele>259.398257</ele>
        <time>2022-05-01T08:43:43.692Z</time>
      </trkpt>
      <trkpt lat="44.5443" lon="1.11081">
        <ele>259.2326</ele>
        <time>2022-05-01T08:43:54.692Z</time>
      </trkpt>
      <trkpt lat="44.54437" lon="1.11073">
        <ele>259.06867</ele>
        <time>2022-05-01T08:44:03.687Z</time>
      </trkpt>
      <trkpt lat="44.54447" lon="1.1107">
        <ele>258.896342</ele>
        <time>2022-05-01T08:44:11.702Z</time>
      </trkpt>
      <trkpt lat="44.54455" lon="1.11063">
        <ele>258.723587</ele>
        <time>2022-05-01T08:44:17.713Z</time>
      </trkpt>
      <trkpt lat="44.54464" lon="1.11056">
        <ele>258.544018</ele>
        <time>2022-05-01T08:44:24.703Z</time>
      </trkpt>
      <trkpt lat="44.54472" lon="1.1105">
        <ele>258.381964</ele>
        <time>2022-05-01T08:44:30.702Z</time>
      </trkpt>
      <trkpt lat="44.54482" lon="1.11046">
        <ele>258.202816</ele>
        <time>2022-05-01T08:44:35.717Z</time>
      </trkpt>
      <trkpt lat="44.54488" lon="1.11036">
        <ele>258.033752</ele>
        <time>2022-05-01T08:44:42.694Z</time>
      </trkpt>
      <trkpt lat="44.54495" lon="1.11026">
        <ele>257.863164</ele>
        <time>2022-05-01T08:44:50.709Z</time>
      </trkpt>
      <trkpt lat="44.54503" lon="1.11018">
        <ele>257.689041</ele>
        <time>2022-05-01T08:44:56.675Z</time>
      </trkpt>
      <trkpt lat="44.54511" lon="1.11012">
        <ele>257.523706</ele>
        <time>2022-05-01T08:45:06.685Z</time>
      </trkpt>
      <trkpt lat="44.5452" lon="1.11008">
        <ele>257.069257</ele>
        <time>2022-05-01T08:45:15.692Z</time>
      </trkpt>
      <trkpt lat="44.54529" lon="1.11004">
        <ele>256.179199</ele>
        <time>2022-05-01T08:45:21.689Z</time>
      </trkpt>
      <trkpt lat="44.54538" lon="1.11001">
        <ele>255.27339</ele>
        <time>2022-05-01T08:45:27.691Z</time>
      </trkpt>
      <trkpt lat="44.54548" lon="1.10997">
        <ele>254.346641</ele>
        <time>2022-05-01T08:45:35.709Z</time>
      </trkpt>
      <trkpt lat="44.54556" lon="1.10992">
        <ele>253.469145</ele>
        <time>2022-05-01T08:45:45.694Z</time>
      </trkpt>
      <trkpt lat="44.54565" lon="1.10987">
        <ele>252.481442</ele>
        <time>2022-05-01T08:45:54.706Z</time>
      </trkpt>
      <trkpt lat="44.54574" lon="1.10984">
        <ele>251.588091</ele>
        <time>2022-05-01T08:46:02.708Z</time>
      </trkpt>
      <trkpt lat="44.54583" lon="1.10978">
        <ele>250.646259</ele>
        <time>2022-05-01T08:46:14.704Z</time>
      </trkpt>
      <trkpt lat="44.54592" lon="1.10973">
        <ele>249.740257</ele>
        <time>2022-05-01T08:46:22.715Z</time>
      </trkpt>
      <trkpt lat="44.54602" lon="1.1097">
        <ele>248.733061</ele>
        <time>2022-05-01T08:46:31.688Z</time>
      </trkpt>
      <trkpt lat="44.54611" lon="1.10965">
        <ele>247.861216</ele>
        <time>2022-05-01T08:46:37.703Z</time>
      </trkpt>
      <trkpt lat="44.5462" lon="1.10959">
        <ele>246.917001</ele>
        <time>2022-05-01T08:46:46.692Z</time>
      </trkpt>
      <trkpt lat="44.54628" lon="1.10955">
        <ele>246.049449</ele>
        <time>2022-05-01T08:46:54.684Z</time>
      </trkpt>
      <trkpt lat="44.54637" lon="1.10949">
        <ele>245.09454</ele>
        <time>2022-05-01T08:47:02.696Z</time>
      </trkpt>
      <trkpt lat="44.54646" lon="1.10944">
        <ele>244.129768</ele>
        <time>2022-05-01T08:47:10.711Z</time>
      </trkpt>
      <trkpt lat="44.54654" lon="1.10936">
        <ele>243.221375</ele>
        <time>2022-05-01T08:47:21.686Z</time>
      </trkpt>
      <trkpt lat="44.54656" lon="1.10923">
        <ele>242.32735</ele>
        <time>2022-05-01T08:47:33.700Z</time>
      </trkpt>
      <trkpt lat="44.54655" lon="1.10911">
        <ele>241.459894</ele>
        <time>2022-05-01T08:47:40.710Z</time>
      </trkpt>
      <trkpt lat="44.54658" lon="1.10897">
        <ele>240.50032</ele>
        <time>2022-05-01T08:47:47.702Z</time>
      </trkpt>
      <trkpt lat="44.54666" lon="1.10888">
        <ele>239.965546</ele>
        <time>2022-05-01T08:47:52.699Z</time>
      </trkpt>
      <trkpt lat="44.54674" lon="1.10883">
        <ele>239.729625</ele>
        <time>2022-05-01T08:47:59.700Z</time>
      </trkpt>
      <trkpt lat="44.54684" lon="1.10879">
        <ele>239.485973</ele>
        <time>2022-05-01T08:48:06.681Z</time>
      </trkpt>
      <trkpt lat="44.54693" lon="1.10879">
        <ele>239.249792</ele>
        <time>2022-05-01T08:48:12.703Z</time>
      </trkpt>
      <trkpt lat="44.54703" lon="1.10879">
        <ele>239.009024</ele>
        <time>2022-05-01T08:48:20.694Z</time>
      </trkpt>
      <trkpt lat="44.54713" lon="1.10879">
        <ele>238.763399</ele>
        <time>2022-05-01T08:48:28.712Z</time>
      </trkpt>
      <trkpt lat="44.54722" lon="1.10877">
        <ele>238.530283</ele>
        <time>2022-05-01T08:48:35.706Z</time>
      </trkpt>
      <trkpt lat="44.54732" lon="1.10875">
        <ele>238.279205</ele>
        <time>2022-05-01T08:48:48.690Z</time>
      </trkpt>
      <trkpt lat="44.54741" lon="1.10874">
        <ele>238.045371</ele>
        <time>2022-05-01T08:48:56.679Z</time>
      </trkpt>
      <trkpt lat="44.54751" lon="1.10876">
        <ele>237.803496</ele>
        <time>2022-05-01T08:49:03.694Z</time>
      </trkpt>
      <trkpt lat="44.5476" lon="1.10876">
        <ele>237.57248</ele>
        <time>2022-05-01T08:49:10.699Z</time>
      </trkpt>
      <trkpt lat="44.5477" lon="1.10878">
        <ele>237.328309</ele>
        <time>2022-05-01T08:49:18.685Z</time>
      </trkpt>
      <trkpt lat="44.54778" lon="1.10883">
        <ele>237.103624</ele>
        <time>2022-05-01T08:49:27.682Z</time>
      </trkpt>
      <trkpt lat="44.54785" lon="1.10874">
        <ele>236.868739</ele>
        <time>2022-05-01T08:49:41.689Z</time>
      </trkpt>
      <trkpt lat="44.5479" lon="1.10863">
        <ele>236.643849</ele>
        <time>2022-05-01T08:49:53.701Z</time>
      </trkpt>
      <trkpt lat="44.54794" lon="1.10852">
        <ele>236.414332</ele>
        <time>2022-05-01T08:50:01.699Z</time>
      </trkpt>
      <trkpt lat="44.54794" lon="1.10837">
        <ele>236.156229</ele>
        <time>2022-05-01T08:50:09.704Z</time>
      </trkpt>
      <trkpt lat="44.54794" lon="1.10823">
        <ele>235.908435</ele>
        <time>2022-05-01T08:50:17.697Z</time>
      </trkpt>
      <trkpt lat="44.54794" lon="1.1081">
        <ele>235.675092</ele>
        <time>2022-05-01T08:50:25.702Z</time>
      </trkpt>
      <trkpt lat="44.54794" lon="1.10796">
        <ele>235.673655</ele>
        <time>2022-05-01T08:50:33.692Z</time>
      </trkpt>
      <trkpt lat="44.54794" lon="1.10783">
        <ele>235.701693</ele>
        <time>2022-05-01T08:50:38.690Z</time>
      </trkpt>
      <trkpt lat="44.54792" lon="1.10769">
        <ele>235.731143</ele>
        <time>2022-05-01T08:50:45.674Z</time>
      </trkpt>
      <trkpt lat="44.54793" lon="1.10756">
        <ele>235.75886</ele>
        <time>2022-05-01T08:50:49.707Z</time>
      </trkpt>
      <trkpt lat="44.54794" lon="1.10743">
        <ele>235.786327</ele>
        <time>2022-05-01T08:50:56.699Z</time>
      </trkpt>
      <trkpt lat="44.54795" lon="1.10729">
        <ele>235.815209</ele>
        <time>2022-05-01T08:51:03.682Z</time>
      </trkpt>
      <trkpt lat="44.54798" lon="1.10716">
        <ele>235.842575</ele>
        <time>2022-05-01T08:51:11.691Z</time>
      </trkpt>
      <trkpt lat="44.54802" lon="1.10702">
        <ele>235.874711</ele>
        <time>2022-05-01T08:51:19.695Z</time>
      </trkpt>
      <trkpt lat="44.54804" lon="1.1069">
        <ele>235.901284</ele>
        <time>2022-05-01T08:51:25.704Z</time>
      </trkpt>
      <trkpt lat="44.54806" lon="1.10676">
        <ele>235.931462</ele>
        <time>2022-05-01T08:51:32.691Z</time>
      </trkpt>
      <trkpt lat="44.54808" lon="1.10663">
        <ele>235.95942</ele>
        <time>2022-05-01T08:51:38.698Z</time>
      </trkpt>
      <trkpt lat="44.54811" lon="1.10651">
        <ele>235.98647</ele>
        <time>2022-05-01T08:51:44.707Z</time>
      </trkpt>
      <trkpt lat="44.54819" lon="1.10642">
        <ele>236.015495</ele>
        <time>2022-05-01T08:51:50.692Z</time>
      </trkpt>
      <trkpt lat="44.54825" lon="1.10631">
        <ele>236.043447</ele>
        <time>2022-05-01T08:51:55.680Z</time>
      </trkpt>
      <trkpt lat="44.54832" lon="1.10621">
        <ele>236.075</ele>
        <time>2022-05-01T08:52:04.719Z</time>
      </trkpt>
      <trkpt lat="44.54837" lon="1.10608">
        <ele>236.104735</ele>
        <time>2022-05-01T08:52:14.688Z</time>
      </trkpt>
      <trkpt lat="44.54839" lon="1.10594">
        <ele>236.133848</ele>
        <time>2022-05-01T08:52:21.711Z</time>
      </trkpt>
      <trkpt lat="44.54846" lon="1.10604">
        <ele>236.162021</ele>
        <time>2022-05-01T08:52:42.711Z</time>
      </trkpt>
      <trkpt lat="44.54851" lon="1.10614">
        <ele>236.680707</ele>
        <time>2022-05-01T08:52:57.696Z</time>
      </trkpt>
      <trkpt lat="44.54861" lon="1.10618">
        <ele>237.838801</ele>
        <time>2022-05-01T08:53:16.692Z</time>
      </trkpt>
      <trkpt lat="44.54869" lon="1.10621">
        <ele>238.899259</ele>
        <time>2022-05-01T08:53:24.686Z</time>
      </trkpt>
      <trkpt lat="44.54878" lon="1.10627">
        <ele>240.08142</ele>
        <time>2022-05-01T08:53:35.708Z</time>
      </trkpt>
      <trkpt lat="44.54887" lon="1.10632">
        <ele>241.19685</ele>
        <time>2022-05-01T08:53:46.675Z</time>
      </trkpt>
      <trkpt lat="44.54896" lon="1.10635">
        <ele>242.264625</ele>
        <time>2022-05-01T08:53:56.692Z</time>
      </trkpt>
      <trkpt lat="44.54905" lon="1.10637">
        <ele>243.348199</ele>
        <time>2022-05-01T08:54:06.682Z</time>
      </trkpt>
      <trkpt lat="44.54915" lon="1.1064">
        <ele>244.544201</ele>
        <time>2022-05-01T08:54:16.688Z</time>
      </trkpt>
      <trkpt lat="44.54923" lon="1.10645">
        <ele>245.608685</ele>
        <time>2022-05-01T08:54:23.763Z</time>
      </trkpt>
      <trkpt lat="44.54933" lon="1.10647">
        <ele>246.754276</ele>
        <time>2022-05-01T08:54:34.696Z</time>
      </trkpt>
      <trkpt lat="44.54942" lon="1.1065">
        <ele>247.831581</ele>
        <time>2022-05-01T08:54:44.701Z</time>
      </trkpt>
      <trkpt lat="44.54951" lon="1.10653">
        <ele>248.908885</ele>
        <time>2022-05-01T08:54:55.692Z</time>
      </trkpt>
      <trkpt lat="44.54961" lon="1.10655">
        <ele>250.134912</ele>
        <time>2022-05-01T08:55:03.703Z</time>
      </trkpt>
      <trkpt lat="44.5497" lon="1.10656">
        <ele>251.250394</ele>
        <time>2022-05-01T08:55:11.689Z</time>
      </trkpt>
      <trkpt lat="44.5498" lon="1.10654">
        <ele>252.395984</ele>
        <time>2022-05-01T08:55:19.698Z</time>
      </trkpt>
      <trkpt lat="44.54986" lon="1.10664">
        <ele>253.494404</ele>
        <time>2022-05-01T08:55:32.698Z</time>
      </trkpt>
      <trkpt lat="44.54988" lon="1.10677">
        <ele>254.619904</ele>
        <time>2022-05-01T08:55:45.696Z</time>
      </trkpt>
      <trkpt lat="44.54994" lon="1.10688">
        <ele>255.735396</ele>
        <time>2022-05-01T08:55:54.702Z</time>
      </trkpt>
      <trkpt lat="44.54995" lon="1.10701">
        <ele>256.800669</ele>
        <time>2022-05-01T08:56:04.689Z</time>
      </trkpt>
      <trkpt lat="44.54999" lon="1.10711">
        <ele>257.718089</ele>
        <time>2022-05-01T08:56:13.700Z</time>
      </trkpt>
      <trkpt lat="44.55003" lon="1.10724">
        <ele>258.504301</ele>
        <time>2022-05-01T08:56:22.699Z</time>
      </trkpt>
      <trkpt lat="44.55002" lon="1.10737">
        <ele>259.258818</ele>
        <time>2022-05-01T08:56:33.715Z</time>
      </trkpt>
      <trkpt lat="44.55002" lon="1.1075">
        <ele>260.012135</ele>
        <time>2022-05-01T08:56:45.687Z</time>
      </trkpt>
      <trkpt lat="44.55006" lon="1.10762">
        <ele>260.809973</ele>
        <time>2022-05-01T08:56:52.693Z</time>
      </trkpt>
      <trkpt lat="44.55009" lon="1.10776">
        <ele>261.613803</ele>
        <time>2022-05-01T08:57:01.698Z</time>
      </trkpt>
      <trkpt lat="44.55011" lon="1.10789">
        <ele>262.385223</ele>
        <time>2022-05-01T08:57:11.681Z</time>
      </trkpt>
      <trkpt lat="44.55014" lon="1.10801">
        <ele>263.157774</ele>
        <time>2022-05-01T08:57:20.709Z</time>
      </trkpt>
      <trkpt lat="44.55021" lon="1.10821">
        <ele>264.446055</ele>
        <time>2022-05-01T08:58:40.699Z</time>
      </trkpt>
      <trkpt lat="44.55022" lon="1.10834">
        <ele>265.198544</ele>
        <time>2022-05-01T08:58:50.694Z</time>
      </trkpt>
      <trkpt lat="44.55023" lon="1.10847">
        <ele>265.96842</ele>
        <time>2022-05-01T08:59:02.704Z</time>
      </trkpt>
      <trkpt lat="44.55025" lon="1.10861">
        <ele>266.799466</ele>
        <time>2022-05-01T08:59:12.702Z</time>
      </trkpt>
      <trkpt lat="44.55028" lon="1.10874">
        <ele>267.610415</ele>
        <time>2022-05-01T08:59:22.689Z</time>
      </trkpt>
      <trkpt lat="44.55032" lon="1.10886">
        <ele>268.371882</ele>
        <time>2022-05-01T08:59:32.717Z</time>
      </trkpt>
      <trkpt lat="44.55036" lon="1.10898">
        <ele>269.123439</ele>
        <time>2022-05-01T08:59:41.745Z</time>
      </trkpt>
      <trkpt lat="44.5504" lon="1.1091">
        <ele>269.931922</ele>
        <time>2022-05-01T08:59:51.704Z</time>
      </trkpt>
      <trkpt lat="44.55045" lon="1.1092">
        <ele>270.668982</ele>
        <time>2022-05-01T08:59:59.702Z</time>
      </trkpt>
      <trkpt lat="44.55051" lon="1.10932">
        <ele>271.492384</ele>
        <time>2022-05-01T09:00:08.693Z</time>
      </trkpt>
      <trkpt lat="44.55055" lon="1.10944">
        <ele>272.137527</ele>
        <time>2022-05-01T09:00:16.678Z</time>
      </trkpt>
      <trkpt lat="44.55059" lon="1.10955">
        <ele>272.248479</ele>
        <time>2022-05-01T09:00:24.696Z</time>
      </trkpt>
      <trkpt lat="44.55062" lon="1.10968">
        <ele>272.368396</ele>
        <time>2022-05-01T09:00:32.692Z</time>
      </trkpt>
      <trkpt lat="44.55066" lon="1.1098">
        <ele>272.487541</ele>
        <time>2022-05-01T09:00:41.696Z</time>
      </trkpt>
      <trkpt lat="44.55076" lon="1.10982">
        <ele>272.602706</ele>
        <time>2022-05-01T09:00:50.684Z</time>
      </trkpt>
      <trkpt lat="44.55085" lon="1.10986">
        <ele>272.72293</ele>
        <time>2022-05-01T09:00:59.687Z</time>
      </trkpt>
      <trkpt lat="44.55094" lon="1.10988">
        <ele>272.842122</ele>
        <time>2022-05-01T09:01:08.705Z</time>
      </trkpt>
      <trkpt lat="44.55104" lon="1.10992">
        <ele>272.964398</ele>
        <time>2022-05-01T09:01:16.684Z</time>
      </trkpt>
      <trkpt lat="44.55113" lon="1.10995">
        <ele>273.084955</ele>
        <time>2022-05-01T09:01:25.717Z</time>
      </trkpt>
      <trkpt lat="44.55123" lon="1.10996">
        <ele>273.208664</ele>
        <time>2022-05-01T09:01:34.697Z</time>
      </trkpt>
      <trkpt lat="44.55133" lon="1.10995">
        <ele>273.329851</ele>
        <time>2022-05-01T09:01:43.738Z</time>
      </trkpt>
      <trkpt lat="44.55142" lon="1.10993">
        <ele>273.44365</ele>
        <time>2022-05-01T09:01:51.695Z</time>
      </trkpt>
      <trkpt lat="44.5515" lon="1.10985">
        <ele>273.559035</ele>
        <time>2022-05-01T09:01:59.696Z</time>
      </trkpt>
      <trkpt lat="44.55158" lon="1.1098">
        <ele>273.67538</ele>
        <time>2022-05-01T09:02:08.692Z</time>
      </trkpt>
      <trkpt lat="44.55166" lon="1.10974">
        <ele>273.787312</ele>
        <time>2022-05-01T09:02:16.686Z</time>
      </trkpt>
      <trkpt lat="44.55176" lon="1.1097">
        <ele>273.907086</ele>
        <time>2022-05-01T09:02:24.699Z</time>
      </trkpt>
      <trkpt lat="44.55186" lon="1.10967">
        <ele>274.036893</ele>
        <time>2022-05-01T09:02:32.699Z</time>
      </trkpt>
      <trkpt lat="44.55194" lon="1.10961">
        <ele>274.155406</ele>
        <time>2022-05-01T09:02:40.702Z</time>
      </trkpt>
      <trkpt lat="44.55204" lon="1.10959">
        <ele>274.268806</ele>
        <time>2022-05-01T09:02:48.689Z</time>
      </trkpt>
      <trkpt lat="44.55213" lon="1.1096">
        <ele>274.314578</ele>
        <time>2022-05-01T09:03:03.699Z</time>
      </trkpt>
      <trkpt lat="44.55221" lon="1.10965">
        <ele>274.267726</ele>
        <time>2022-05-01T09:03:09.703Z</time>
      </trkpt>
      <trkpt lat="44.5523" lon="1.10968">
        <ele>274.216674</ele>
        <time>2022-05-01T09:03:15.707Z</time>
      </trkpt>
      <trkpt lat="44.55239" lon="1.10973">
        <ele>274.16822</ele>
        <time>2022-05-01T09:03:24.674Z</time>
      </trkpt>
      <trkpt lat="44.55249" lon="1.10974">
        <ele>274.117396</ele>
        <time>2022-05-01T09:03:31.713Z</time>
      </trkpt>
      <trkpt lat="44.55255" lon="1.10964">
        <ele>274.066788</ele>
        <time>2022-05-01T09:03:38.719Z</time>
      </trkpt>
      <trkpt lat="44.55259" lon="1.10952">
        <ele>274.017855</ele>
        <time>2022-05-01T09:03:44.718Z</time>
      </trkpt>
      <trkpt lat="44.55266" lon="1.10942">
        <ele>273.964942</ele>
        <time>2022-05-01T09:03:52.701Z</time>
      </trkpt>
      <trkpt lat="44.55271" lon="1.10929">
        <ele>273.911459</ele>
        <time>2022-05-01T09:03:59.697Z</time>
      </trkpt>
      <trkpt lat="44.55274" lon="1.10916">
        <ele>273.861956</ele>
        <time>2022-05-01T09:04:06.673Z</time>
      </trkpt>
      <trkpt lat="44.55277" lon="1.10904">
        <ele>273.812786</ele>
        <time>2022-05-01T09:04:12.688Z</time>
      </trkpt>
      <trkpt lat="44.55278" lon="1.10891">
        <ele>273.764038</ele>
        <time>2022-05-01T09:04:20.707Z</time>
      </trkpt>
      <trkpt lat="44.55282" lon="1.10878">
        <ele>273.712299</ele>
        <time>2022-05-01T09:04:28.688Z</time>
      </trkpt>
      <trkpt lat="44.55286" lon="1.10867">
        <ele>273.662992</ele>
        <time>2022-05-01T09:04:34.699Z</time>
      </trkpt>
      <trkpt lat="44.5529" lon="1.10853">
        <ele>273.610014</ele>
        <time>2022-05-01T09:04:41.698Z</time>
      </trkpt>
      <trkpt lat="44.55291" lon="1.10839">
        <ele>273.554717</ele>
        <time>2022-05-01T09:04:50.708Z</time>
      </trkpt>
      <trkpt lat="44.55296" lon="1.10825">
        <ele>273.497069</ele>
        <time>2022-05-01T09:04:57.677Z</time>
      </trkpt>
      <trkpt lat="44.55304" lon="1.10816">
        <ele>273.445234</ele>
        <time>2022-05-01T09:05:04.704Z</time>
      </trkpt>
      <trkpt lat="44.55313" lon="1.10809">
        <ele>273.393622</ele>
        <time>2022-05-01T09:05:11.699Z</time>
      </trkpt>
      <trkpt lat="44.55322" lon="1.10805">
        <ele>273.317414</ele>
        <time>2022-05-01T09:05:17.686Z</time>
      </trkpt>
      <trkpt lat="44.5533" lon="1.10799">
        <ele>273.245432</ele>
        <time>2022-05-01T09:05:25.724Z</time>
      </trkpt>
      <trkpt lat="44.5534" lon="1.10797">
        <ele>273.17236</ele>
        <time>2022-05-01T09:05:34.678Z</time>
      </trkpt>
      <trkpt lat="44.55349" lon="1.10794">
        <ele>273.100301</ele>
        <time>2022-05-01T09:05:43.681Z</time>
      </trkpt>
      <trkpt lat="44.55358" lon="1.10787">
        <ele>273.022495</ele>
        <time>2022-05-01T09:05:52.703Z</time>
      </trkpt>
      <trkpt lat="44.55364" lon="1.10777">
        <ele>272.950028</ele>
        <time>2022-05-01T09:05:58.690Z</time>
      </trkpt>
      <trkpt lat="44.55367" lon="1.10765">
        <ele>272.880277</ele>
        <time>2022-05-01T09:06:06.703Z</time>
      </trkpt>
      <trkpt lat="44.55373" lon="1.10753">
        <ele>272.802665</ele>
        <time>2022-05-01T09:06:12.710Z</time>
      </trkpt>
      <trkpt lat="44.55374" lon="1.1074">
        <ele>272.728011</ele>
        <time>2022-05-01T09:06:21.719Z</time>
      </trkpt>
      <trkpt lat="44.55368" lon="1.10727">
        <ele>272.648119</ele>
        <time>2022-05-01T09:06:29.696Z</time>
      </trkpt>
      <trkpt lat="44.55364" lon="1.10715">
        <ele>272.577007</ele>
        <time>2022-05-01T09:06:38.692Z</time>
      </trkpt>
      <trkpt lat="44.55359" lon="1.10703">
        <ele>272.502373</ele>
        <time>2022-05-01T09:06:47.700Z</time>
      </trkpt>
      <trkpt lat="44.55354" lon="1.10691">
        <ele>272.423412</ele>
        <time>2022-05-01T09:06:54.713Z</time>
      </trkpt>
      <trkpt lat="44.55354" lon="1.10677">
        <ele>272.351431</ele>
        <time>2022-05-01T09:07:01.695Z</time>
      </trkpt>
      <trkpt lat="44.55355" lon="1.10664">
        <ele>272.278252</ele>
        <time>2022-05-01T09:07:09.693Z</time>
      </trkpt>
      <trkpt lat="44.55352" lon="1.10651">
        <ele>272.205905</ele>
        <time>2022-05-01T09:07:17.703Z</time>
      </trkpt>
      <trkpt lat="44.55346" lon="1.10641">
        <ele>272.13253</ele>
        <time>2022-05-01T09:07:22.708Z</time>
      </trkpt>
      <trkpt lat="44.55341" lon="1.1063">
        <ele>272.06047</ele>
        <time>2022-05-01T09:07:30.707Z</time>
      </trkpt>
      <trkpt lat="44.55336" lon="1.10617">
        <ele>271.538273</ele>
        <time>2022-05-01T09:07:39.688Z</time>
      </trkpt>
      <trkpt lat="44.55332" lon="1.10604">
        <ele>270.446873</ele>
        <time>2022-05-01T09:07:48.709Z</time>
      </trkpt>
      <trkpt lat="44.55329" lon="1.10592">
        <ele>269.449029</ele>
        <time>2022-05-01T09:07:54.688Z</time>
      </trkpt>
      <trkpt lat="44.55327" lon="1.10577">
        <ele>268.344273</ele>
        <time>2022-05-01T09:08:00.703Z</time>
      </trkpt>
      <trkpt lat="44.55327" lon="1.10565">
        <ele>267.392715</ele>
        <time>2022-05-01T09:08:08.689Z</time>
      </trkpt>
      <trkpt lat="44.55331" lon="1.10553">
        <ele>266.435141</ele>
        <time>2022-05-01T09:08:14.696Z</time>
      </trkpt>
      <trkpt lat="44.55337" lon="1.10543">
        <ele>265.451094</ele>
        <time>2022-05-01T09:08:23.684Z</time>
      </trkpt>
      <trkpt lat="44.55339" lon="1.10529">
        <ele>264.417227</ele>
        <time>2022-05-01T09:08:31.713Z</time>
      </trkpt>
      <trkpt lat="44.55343" lon="1.10517">
        <ele>263.364348</ele>
        <time>2022-05-01T09:08:39.682Z</time>
      </trkpt>
      <trkpt lat="44.55349" lon="1.10508">
        <ele>262.404193</ele>
        <time>2022-05-01T09:08:46.672Z</time>
      </trkpt>
      <trkpt lat="44.55351" lon="1.10494">
        <ele>261.396408</ele>
        <time>2022-05-01T09:08:56.704Z</time>
      </trkpt>
      <trkpt lat="44.55359" lon="1.10485">
        <ele>260.218883</ele>
        <time>2022-05-01T09:09:03.692Z</time>
      </trkpt>
      <trkpt lat="44.55366" lon="1.10474">
        <ele>259.141839</ele>
        <time>2022-05-01T09:09:09.699Z</time>
      </trkpt>
      <trkpt lat="44.5537" lon="1.10462">
        <ele>258.140586</ele>
        <time>2022-05-01T09:09:16.667Z</time>
      </trkpt>
      <trkpt lat="44.55376" lon="1.10452">
        <ele>257.177531</ele>
        <time>2022-05-01T09:09:22.705Z</time>
      </trkpt>
      <trkpt lat="44.55381" lon="1.10442">
        <ele>256.217098</ele>
        <time>2022-05-01T09:09:30.699Z</time>
      </trkpt>
      <trkpt lat="44.55385" lon="1.1043">
        <ele>255.239252</ele>
        <time>2022-05-01T09:09:37.694Z</time>
      </trkpt>
      <trkpt lat="44.55391" lon="1.1042">
        <ele>254.271427</ele>
        <time>2022-05-01T09:09:48.703Z</time>
      </trkpt>
      <trkpt lat="44.55391" lon="1.10407">
        <ele>253.250599</ele>
        <time>2022-05-01T09:09:57.709Z</time>
      </trkpt>
      <trkpt lat="44.55394" lon="1.10395">
        <ele>251.916615</ele>
        <time>2022-05-01T09:10:04.699Z</time>
      </trkpt>
      <trkpt lat="44.55398" lon="1.10383">
        <ele>250.413704</ele>
        <time>2022-05-01T09:10:12.706Z</time>
      </trkpt>
      <trkpt lat="44.55403" lon="1.10372">
        <ele>248.775871</ele>
        <time>2022-05-01T09:10:19.702Z</time>
      </trkpt>
      <trkpt lat="44.55399" lon="1.1036">
        <ele>247.21839</ele>
        <time>2022-05-01T09:10:28.695Z</time>
      </trkpt>
      <trkpt lat="44.55389" lon="1.10361">
        <ele>245.60797</ele>
        <time>2022-05-01T09:10:37.703Z</time>
      </trkpt>
      <trkpt lat="44.5538" lon="1.10359">
        <ele>244.053069</ele>
        <time>2022-05-01T09:10:47.687Z</time>
      </trkpt>
      <trkpt lat="44.5537" lon="1.1036">
        <ele>242.5052</ele>
        <time>2022-05-01T09:10:57.697Z</time>
      </trkpt>
      <trkpt lat="44.55361" lon="1.1036">
        <ele>240.895474</ele>
        <time>2022-05-01T09:11:05.709Z</time>
      </trkpt>
      <trkpt lat="44.55362" lon="1.10347">
        <ele>239.298382</ele>
        <time>2022-05-01T09:11:22.711Z</time>
      </trkpt>
      <trkpt lat="44.55368" lon="1.10337">
        <ele>237.732717</ele>
        <time>2022-05-01T09:11:36.687Z</time>
      </trkpt>
      <trkpt lat="44.55375" lon="1.10326">
        <ele>236.096836</ele>
        <time>2022-05-01T09:11:43.717Z</time>
      </trkpt>
      <trkpt lat="44.5538" lon="1.10316">
        <ele>234.572082</ele>
        <time>2022-05-01T09:11:51.699Z</time>
      </trkpt>
      <trkpt lat="44.55385" lon="1.10305">
        <ele>232.980318</ele>
        <time>2022-05-01T09:12:00.698Z</time>
      </trkpt>
      <trkpt lat="44.55388" lon="1.10292">
        <ele>231.398108</ele>
        <time>2022-05-01T09:12:10.708Z</time>
      </trkpt>
      <trkpt lat="44.5539" lon="1.10278">
        <ele>229.712776</ele>
        <time>2022-05-01T09:12:18.689Z</time>
      </trkpt>
      <trkpt lat="44.55396" lon="1.10268">
        <ele>228.188025</ele>
        <time>2022-05-01T09:12:26.681Z</time>
      </trkpt>
      <trkpt lat="44.554" lon="1.10257">
        <ele>226.691817</ele>
        <time>2022-05-01T09:12:35.696Z</time>
      </trkpt>
      <trkpt lat="44.55404" lon="1.10244">
        <ele>225.034711</ele>
        <time>2022-05-01T09:12:44.703Z</time>
      </trkpt>
      <trkpt lat="44.55408" lon="1.10231">
        <ele>223.360205</ele>
        <time>2022-05-01T09:12:51.698Z</time>
      </trkpt>
      <trkpt lat="44.55412" lon="1.10219">
        <ele>221.891787</ele>
        <time>2022-05-01T09:13:01.702Z</time>
      </trkpt>
      <trkpt lat="44.55414" lon="1.10206">
        <ele>220.353637</ele>
        <time>2022-05-01T09:13:09.699Z</time>
      </trkpt>
      <trkpt lat="44.55418" lon="1.10193">
        <ele>218.770493</ele>
        <time>2022-05-01T09:13:17.685Z</time>
      </trkpt>
      <trkpt lat="44.55421" lon="1.1018">
        <ele>217.208503</ele>
        <time>2022-05-01T09:13:22.695Z</time>
      </trkpt>
      <trkpt lat="44.55426" lon="1.10169">
        <ele>215.720383</ele>
        <time>2022-05-01T09:13:29.709Z</time>
      </trkpt>
      <trkpt lat="44.55431" lon="1.10157">
        <ele>214.225496</ele>
        <time>2022-05-01T09:13:35.688Z</time>
      </trkpt>
      <trkpt lat="44.55433" lon="1.10144">
        <ele>212.747494</ele>
        <time>2022-05-01T09:13:42.697Z</time>
      </trkpt>
      <trkpt lat="44.55434" lon="1.1013">
        <ele>211.128339</ele>
        <time>2022-05-01T09:13:50.690Z</time>
      </trkpt>
      <trkpt lat="44.55437" lon="1.10118">
        <ele>209.69205</ele>
        <time>2022-05-01T09:13:56.673Z</time>
      </trkpt>
      <trkpt lat="44.55441" lon="1.10106">
        <ele>208.15679</ele>
        <time>2022-05-01T09:14:04.700Z</time>
      </trkpt>
      <trkpt lat="44.55443" lon="1.10092">
        <ele>206.590921</ele>
        <time>2022-05-01T09:14:12.701Z</time>
      </trkpt>
      <trkpt lat="44.55446" lon="1.10078">
        <ele>205.006665</ele>
        <time>2022-05-01T09:14:19.697Z</time>
      </trkpt>
      <trkpt lat="44.5545" lon="1.10067">
        <ele>203.541828</ele>
        <time>2022-05-01T09:14:25.702Z</time>
      </trkpt>
      <trkpt lat="44.5545" lon="1.10054">
        <ele>202.083714</ele>
        <time>2022-05-01T09:14:33.699Z</time>
      </trkpt>
      <trkpt lat="44.55449" lon="1.10041">
        <ele>200.647714</ele>
        <time>2022-05-01T09:14:40.691Z</time>
      </trkpt>
      <trkpt lat="44.55449" lon="1.10029">
        <ele>199.21307</ele>
        <time>2022-05-01T09:14:48.699Z</time>
      </trkpt>
      <trkpt lat="44.55441" lon="1.1002">
        <ele>197.701772</ele>
        <time>2022-05-01T09:14:57.701Z</time>
      </trkpt>
      <trkpt lat="44.55439" lon="1.10007">
        <ele>196.219027</ele>
        <time>2022-05-01T09:15:07.700Z</time>
      </trkpt>
      <trkpt lat="44.55441" lon="1.09995">
        <ele>194.785023</ele>
        <time>2022-05-01T09:15:14.688Z</time>
      </trkpt>
      <trkpt lat="44.55448" lon="1.09987">
        <ele>194.479813</ele>
        <time>2022-05-01T09:15:22.723Z</time>
      </trkpt>
      <trkpt lat="44.55444" lon="1.09975">
        <ele>194.289793</ele>
        <time>2022-05-01T09:15:31.697Z</time>
      </trkpt>
      <trkpt lat="44.55436" lon="1.0997">
        <ele>194.108865</ele>
        <time>2022-05-01T09:15:42.703Z</time>
      </trkpt>
      <trkpt lat="44.55427" lon="1.09967">
        <ele>193.923961</ele>
        <time>2022-05-01T09:15:53.683Z</time>
      </trkpt>
      <trkpt lat="44.55432" lon="1.09955">
        <ele>193.725045</ele>
        <time>2022-05-01T09:16:00.708Z</time>
      </trkpt>
      <trkpt lat="44.55437" lon="1.09944">
        <ele>193.535479</ele>
        <time>2022-05-01T09:16:08.731Z</time>
      </trkpt>
      <trkpt lat="44.55447" lon="1.09938">
        <ele>193.329225</ele>
        <time>2022-05-01T09:16:18.685Z</time>
      </trkpt>
      <trkpt lat="44.55455" lon="1.09931">
        <ele>193.143363</ele>
        <time>2022-05-01T09:16:36.686Z</time>
      </trkpt>
      <trkpt lat="44.55463" lon="1.09926">
        <ele>192.961163</ele>
        <time>2022-05-01T09:16:44.711Z</time>
      </trkpt>
      <trkpt lat="44.55472" lon="1.09929">
        <ele>192.768187</ele>
        <time>2022-05-01T09:16:51.691Z</time>
      </trkpt>
      <trkpt lat="44.55481" lon="1.09922">
        <ele>192.571897</ele>
        <time>2022-05-01T09:17:00.691Z</time>
      </trkpt>
      <trkpt lat="44.55488" lon="1.09913">
        <ele>192.377438</ele>
        <time>2022-05-01T09:17:10.711Z</time>
      </trkpt>
      <trkpt lat="44.55498" lon="1.09908">
        <ele>192.168274</ele>
        <time>2022-05-01T09:17:18.708Z</time>
      </trkpt>
      <trkpt lat="44.55507" lon="1.09901">
        <ele>191.97549</ele>
        <time>2022-05-01T09:17:25.708Z</time>
      </trkpt>
      <trkpt lat="44.55516" lon="1.09899">
        <ele>191.7922</ele>
        <time>2022-05-01T09:17:33.699Z</time>
      </trkpt>
      <trkpt lat="44.55525" lon="1.09893">
        <ele>191.579825</ele>
        <time>2022-05-01T09:17:41.697Z</time>
      </trkpt>
      <trkpt lat="44.55534" lon="1.09887">
        <ele>191.380775</ele>
        <time>2022-05-01T09:17:49.702Z</time>
      </trkpt>
      <trkpt lat="44.55542" lon="1.09881">
        <ele>191.198365</ele>
        <time>2022-05-01T09:17:57.695Z</time>
      </trkpt>
      <trkpt lat="44.5555" lon="1.09871">
        <ele>191.158043</ele>
        <time>2022-05-01T09:18:05.704Z</time>
      </trkpt>
      <trkpt lat="44.55556" lon="1.09861">
        <ele>191.465609</ele>
        <time>2022-05-01T09:18:12.675Z</time>
      </trkpt>
      <trkpt lat="44.55566" lon="1.09865">
        <ele>191.781069</ele>
        <time>2022-05-01T09:18:22.689Z</time>
      </trkpt>
      <trkpt lat="44.55572" lon="1.09875">
        <ele>192.087167</ele>
        <time>2022-05-01T09:18:29.701Z</time>
      </trkpt>
      <trkpt lat="44.55578" lon="1.09885">
        <ele>192.392878</ele>
        <time>2022-05-01T09:18:37.706Z</time>
      </trkpt>
      <trkpt lat="44.55581" lon="1.09899">
        <ele>192.713571</ele>
        <time>2022-05-01T09:18:43.685Z</time>
      </trkpt>
      <trkpt lat="44.55585" lon="1.0991">
        <ele>193.00641</ele>
        <time>2022-05-01T09:18:54.694Z</time>
      </trkpt>
      <trkpt lat="44.55587" lon="1.09923">
        <ele>193.325751</ele>
        <time>2022-05-01T09:19:01.688Z</time>
      </trkpt>
      <trkpt lat="44.55595" lon="1.09932">
        <ele>193.626094</ele>
        <time>2022-05-01T09:19:08.684Z</time>
      </trkpt>
      <trkpt lat="44.55593" lon="1.09945">
        <ele>193.927537</ele>
        <time>2022-05-01T09:19:16.690Z</time>
      </trkpt>
      <trkpt lat="44.55593" lon="1.0996">
        <ele>194.279122</ele>
        <time>2022-05-01T09:19:22.701Z</time>
      </trkpt>
      <trkpt lat="44.55594" lon="1.09973">
        <ele>194.568139</ele>
        <time>2022-05-01T09:19:27.685Z</time>
      </trkpt>
      <trkpt lat="44.5559" lon="1.09985">
        <ele>194.871946</ele>
        <time>2022-05-01T09:19:35.702Z</time>
      </trkpt>
      <trkpt lat="44.55593" lon="1.09997">
        <ele>195.168415</ele>
        <time>2022-05-01T09:19:41.685Z</time>
      </trkpt>
      <trkpt lat="44.55595" lon="1.1001">
        <ele>195.491304</ele>
        <time>2022-05-01T09:19:51.699Z</time>
      </trkpt>
      <trkpt lat="44.55595" lon="1.10025">
        <ele>195.817513</ele>
        <time>2022-05-01T09:19:58.692Z</time>
      </trkpt>
      <trkpt lat="44.55597" lon="1.10038">
        <ele>196.124566</ele>
        <time>2022-05-01T09:20:06.687Z</time>
      </trkpt>
      <trkpt lat="44.55593" lon="1.10049">
        <ele>196.414714</ele>
        <time>2022-05-01T09:20:12.687Z</time>
      </trkpt>
      <trkpt lat="44.55594" lon="1.10062">
        <ele>196.708263</ele>
        <time>2022-05-01T09:20:20.725Z</time>
      </trkpt>
      <trkpt lat="44.55593" lon="1.10076">
        <ele>197.521803</ele>
        <time>2022-05-01T09:20:27.696Z</time>
      </trkpt>
      <trkpt lat="44.55589" lon="1.10087">
        <ele>198.762658</ele>
        <time>2022-05-01T09:20:39.695Z</time>
      </trkpt>
      <trkpt lat="44.55588" lon="1.10102">
        <ele>200.103669</ele>
        <time>2022-05-01T09:20:48.690Z</time>
      </trkpt>
      <trkpt lat="44.55584" lon="1.10114">
        <ele>201.385032</ele>
        <time>2022-05-01T09:20:54.717Z</time>
      </trkpt>
      <trkpt lat="44.55586" lon="1.10128">
        <ele>202.686598</ele>
        <time>2022-05-01T09:21:02.692Z</time>
      </trkpt>
      <trkpt lat="44.55586" lon="1.10141">
        <ele>203.966274</ele>
        <time>2022-05-01T09:21:14.691Z</time>
      </trkpt>
      <trkpt lat="44.55592" lon="1.10151">
        <ele>205.14944</ele>
        <time>2022-05-01T09:21:24.715Z</time>
      </trkpt>
      <trkpt lat="44.55593" lon="1.10164">
        <ele>206.377714</ele>
        <time>2022-05-01T09:21:32.699Z</time>
      </trkpt>
      <trkpt lat="44.55596" lon="1.10176">
        <ele>207.580418</ele>
        <time>2022-05-01T09:21:41.690Z</time>
      </trkpt>
      <trkpt lat="44.55598" lon="1.10189">
        <ele>208.78518</ele>
        <time>2022-05-01T09:21:52.702Z</time>
      </trkpt>
      <trkpt lat="44.55599" lon="1.10201">
        <ele>209.95901</ele>
        <time>2022-05-01T09:22:00.710Z</time>
      </trkpt>
      <trkpt lat="44.55604" lon="1.10213">
        <ele>211.24437</ele>
        <time>2022-05-01T09:22:11.685Z</time>
      </trkpt>
      <trkpt lat="44.55612" lon="1.10221">
        <ele>212.492716</ele>
        <time>2022-05-01T09:22:24.698Z</time>
      </trkpt>
      <trkpt lat="44.55618" lon="1.10232">
        <ele>213.770807</ele>
        <time>2022-05-01T09:22:33.696Z</time>
      </trkpt>
      <trkpt lat="44.55624" lon="1.10242">
        <ele>214.961053</ele>
        <time>2022-05-01T09:22:42.709Z</time>
      </trkpt>
      <trkpt lat="44.55632" lon="1.10248">
        <ele>216.196965</ele>
        <time>2022-05-01T09:22:52.696Z</time>
      </trkpt>
      <trkpt lat="44.55641" lon="1.10249">
        <ele>217.441546</ele>
        <time>2022-05-01T09:23:02.699Z</time>
      </trkpt>
      <trkpt lat="44.5564" lon="1.10236">
        <ele>218.62258</ele>
        <time>2022-05-01T09:23:15.710Z</time>
      </trkpt>
      <trkpt lat="44.55642" lon="1.10223">
        <ele>219.86051</ele>
        <time>2022-05-01T09:23:28.696Z</time>
      </trkpt>
      <trkpt lat="44.55642" lon="1.1021">
        <ele>221.08589</ele>
        <time>2022-05-01T09:23:37.689Z</time>
      </trkpt>
      <trkpt lat="44.55641" lon="1.10196">
        <ele>222.475207</ele>
        <time>2022-05-01T09:23:47.700Z</time>
      </trkpt>
      <trkpt lat="44.55642" lon="1.10183">
        <ele>223.75716</ele>
        <time>2022-05-01T09:23:57.698Z</time>
      </trkpt>
      <trkpt lat="44.55644" lon="1.10169">
        <ele>225.084358</ele>
        <time>2022-05-01T09:24:06.679Z</time>
      </trkpt>
      <trkpt lat="44.55647" lon="1.10156">
        <ele>226.437843</ele>
        <time>2022-05-01T09:24:15.686Z</time>
      </trkpt>
      <trkpt lat="44.5565" lon="1.10142">
        <ele>227.885791</ele>
        <time>2022-05-01T09:24:26.679Z</time>
      </trkpt>
      <trkpt lat="44.55655" lon="1.1013">
        <ele>229.141666</ele>
        <time>2022-05-01T09:24:34.694Z</time>
      </trkpt>
      <trkpt lat="44.5566" lon="1.1012">
        <ele>230.36622</ele>
        <time>2022-05-01T09:24:44.683Z</time>
      </trkpt>
      <trkpt lat="44.55658" lon="1.10107">
        <ele>231.6132</ele>
        <time>2022-05-01T09:24:53.688Z</time>
      </trkpt>
      <trkpt lat="44.5566" lon="1.10094">
        <ele>232.93927</ele>
        <time>2022-05-01T09:25:05.702Z</time>
      </trkpt>
      <trkpt lat="44.5566" lon="1.10081">
        <ele>234.156186</ele>
        <time>2022-05-01T09:25:16.700Z</time>
      </trkpt>
      <trkpt lat="44.5566" lon="1.10068">
        <ele>235.438991</ele>
        <time>2022-05-01T09:25:27.703Z</time>
      </trkpt>
      <trkpt lat="44.55664" lon="1.10056">
        <ele>236.675015</ele>
        <time>2022-05-01T09:25:35.708Z</time>
      </trkpt>
      <trkpt lat="44.5567" lon="1.10047">
        <ele>237.909354</ele>
        <time>2022-05-01T09:25:42.698Z</time>
      </trkpt>
      <trkpt lat="44.55678" lon="1.1004">
        <ele>239.207361</ele>
        <time>2022-05-01T09:25:52.702Z</time>
      </trkpt>
      <trkpt lat="44.55687" lon="1.10033">
        <ele>240.521931</ele>
        <time>2022-05-01T09:26:02.700Z</time>
      </trkpt>
      <trkpt lat="44.55697" lon="1.10031">
        <ele>241.914769</ele>
        <time>2022-05-01T09:26:14.680Z</time>
      </trkpt>
      <trkpt lat="44.55706" lon="1.10028">
        <ele>243.176775</ele>
        <time>2022-05-01T09:26:24.698Z</time>
      </trkpt>
      <trkpt lat="44.55715" lon="1.10025">
        <ele>244.445497</ele>
        <time>2022-05-01T09:26:33.714Z</time>
      </trkpt>
      <trkpt lat="44.55725" lon="1.10023">
        <ele>245.558818</ele>
        <time>2022-05-01T09:26:41.698Z</time>
      </trkpt>
      <trkpt lat="44.55734" lon="1.10022">
        <ele>246.529302</ele>
        <time>2022-05-01T09:26:48.708Z</time>
      </trkpt>
      <trkpt lat="44.55743" lon="1.10023">
        <ele>247.502986</ele>
        <time>2022-05-01T09:26:56.672Z</time>
      </trkpt>
      <trkpt lat="44.55752" lon="1.10025">
        <ele>248.488009</ele>
        <time>2022-05-01T09:27:04.674Z</time>
      </trkpt>
      <trkpt lat="44.55761" lon="1.10029">
        <ele>249.514031</ele>
        <time>2022-05-01T09:27:12.696Z</time>
      </trkpt>
      <trkpt lat="44.55771" lon="1.10031">
        <ele>250.558562</ele>
        <time>2022-05-01T09:27:21.720Z</time>
      </trkpt>
      <trkpt lat="44.5578" lon="1.1003">
        <ele>251.515411</ele>
        <time>2022-05-01T09:27:31.709Z</time>
      </trkpt>
      <trkpt lat="44.55789" lon="1.1003">
        <ele>252.516813</ele>
        <time>2022-05-01T09:27:40.708Z</time>
      </trkpt>
      <trkpt lat="44.55798" lon="1.10033">
        <ele>253.509253</ele>
        <time>2022-05-01T09:27:50.716Z</time>
      </trkpt>
      <trkpt lat="44.55807" lon="1.10037">
        <ele>254.52205</ele>
        <time>2022-05-01T09:28:00.707Z</time>
      </trkpt>
      <trkpt lat="44.55816" lon="1.10043">
        <ele>255.583486</ele>
        <time>2022-05-01T09:28:07.697Z</time>
      </trkpt>
      <trkpt lat="44.55824" lon="1.10051">
        <ele>256.61261</ele>
        <time>2022-05-01T09:28:15.699Z</time>
      </trkpt>
      <trkpt lat="44.55832" lon="1.10057">
        <ele>257.569521</ele>
        <time>2022-05-01T09:28:33.706Z</time>
      </trkpt>
      <trkpt lat="44.55839" lon="1.10065">
        <ele>258.563682</ele>
        <time>2022-05-01T09:28:47.700Z</time>
      </trkpt>
      <trkpt lat="44.55847" lon="1.10074">
        <ele>259.608874</ele>
        <time>2022-05-01T09:28:55.717Z</time>
      </trkpt>
      <trkpt lat="44.55855" lon="1.10081">
        <ele>260.682716</ele>
        <time>2022-05-01T09:29:03.703Z</time>
      </trkpt>
      <trkpt lat="44.55864" lon="1.10086">
        <ele>261.680461</ele>
        <time>2022-05-01T09:29:12.688Z</time>
      </trkpt>
      <trkpt lat="44.55871" lon="1.10094">
        <ele>262.676539</ele>
        <time>2022-05-01T09:29:19.710Z</time>
      </trkpt>
      <trkpt lat="44.55879" lon="1.10102">
        <ele>263.653354</ele>
        <time>2022-05-01T09:29:27.702Z</time>
      </trkpt>
      <trkpt lat="44.55886" lon="1.10109">
        <ele>264.387146</ele>
        <time>2022-05-01T09:29:37.702Z</time>
      </trkpt>
      <trkpt lat="44.55896" lon="1.10112">
        <ele>265.127194</ele>
        <time>2022-05-01T09:29:48.696Z</time>
      </trkpt>
      <trkpt lat="44.55906" lon="1.10115">
        <ele>265.810733</ele>
        <time>2022-05-01T09:29:58.694Z</time>
      </trkpt>
      <trkpt lat="44.55915" lon="1.10121">
        <ele>266.536176</ele>
        <time>2022-05-01T09:30:07.690Z</time>
      </trkpt>
      <trkpt lat="44.55922" lon="1.1013">
        <ele>267.248087</ele>
        <time>2022-05-01T09:30:17.701Z</time>
      </trkpt>
      <trkpt lat="44.55932" lon="1.10131">
        <ele>267.988059</ele>
        <time>2022-05-01T09:30:27.688Z</time>
      </trkpt>
      <trkpt lat="44.5594" lon="1.10138">
        <ele>268.648193</ele>
        <time>2022-05-01T09:30:34.684Z</time>
      </trkpt>
      <trkpt lat="44.55948" lon="1.10143">
        <ele>269.319907</ele>
        <time>2022-05-01T09:30:42.687Z</time>
      </trkpt>
      <trkpt lat="44.55957" lon="1.10147">
        <ele>269.994258</ele>
        <time>2022-05-01T09:30:50.696Z</time>
      </trkpt>
      <trkpt lat="44.55965" lon="1.10156">
        <ele>270.709647</ele>
        <time>2022-05-01T09:30:58.700Z</time>
      </trkpt>
      <trkpt lat="44.55971" lon="1.10166">
        <ele>271.395675</ele>
        <time>2022-05-01T09:31:06.709Z</time>
      </trkpt>
      <trkpt lat="44.5598" lon="1.10171">
        <ele>272.084691</ele>
        <time>2022-05-01T09:31:13.709Z</time>
      </trkpt>
      <trkpt lat="44.5599" lon="1.10176">
        <ele>272.837791</ele>
        <time>2022-05-01T09:31:21.702Z</time>
      </trkpt>
      <trkpt lat="44.55999" lon="1.10182">
        <ele>273.572122</ele>
        <time>2022-05-01T09:31:27.695Z</time>
      </trkpt>
      <trkpt lat="44.56008" lon="1.10186">
        <ele>274.290885</ele>
        <time>2022-05-01T09:31:36.684Z</time>
      </trkpt>
      <trkpt lat="44.56017" lon="1.10188">
        <ele>274.974981</ele>
        <time>2022-05-01T09:31:44.693Z</time>
      </trkpt>
      <trkpt lat="44.56026" lon="1.10194">
        <ele>275.65541</ele>
        <time>2022-05-01T09:31:51.687Z</time>
      </trkpt>
      <trkpt lat="44.56034" lon="1.10199">
        <ele>276.322929</ele>
        <time>2022-05-01T09:31:58.709Z</time>
      </trkpt>
      <trkpt lat="44.56043" lon="1.10201">
        <ele>276.874694</ele>
        <time>2022-05-01T09:32:04.694Z</time>
      </trkpt>
      <trkpt lat="44.56053" lon="1.10204">
        <ele>276.573129</ele>
        <time>2022-05-01T09:32:10.703Z</time>
      </trkpt>
      <trkpt lat="44.56062" lon="1.10205">
        <ele>276.284285</ele>
        <time>2022-05-01T09:32:17.688Z</time>
      </trkpt>
      <trkpt lat="44.56072" lon="1.10206">
        <ele>275.973936</ele>
        <time>2022-05-01T09:32:25.710Z</time>
      </trkpt>
      <trkpt lat="44.56081" lon="1.10207">
        <ele>275.672433</ele>
        <time>2022-05-01T09:32:32.699Z</time>
      </trkpt>
      <trkpt lat="44.56091" lon="1.10208">
        <ele>275.373837</ele>
        <time>2022-05-01T09:32:39.696Z</time>
      </trkpt>
      <trkpt lat="44.561" lon="1.10206">
        <ele>275.074953</ele>
        <time>2022-05-01T09:32:46.671Z</time>
      </trkpt>
      <trkpt lat="44.56105" lon="1.10195">
        <ele>274.787929</ele>
        <time>2022-05-01T09:32:54.702Z</time>
      </trkpt>
      <trkpt lat="44.56105" lon="1.10181">
        <ele>274.477969</ele>
        <time>2022-05-01T09:33:01.710Z</time>
      </trkpt>
      <trkpt lat="44.56101" lon="1.10168">
        <ele>274.164391</ele>
        <time>2022-05-01T09:33:09.700Z</time>
      </trkpt>
      <trkpt lat="44.56101" lon="1.10154">
        <ele>273.863488</ele>
        <time>2022-05-01T09:33:17.691Z</time>
      </trkpt>
      <trkpt lat="44.56102" lon="1.10141">
        <ele>273.564013</ele>
        <time>2022-05-01T09:33:25.705Z</time>
      </trkpt>
      <trkpt lat="44.56103" lon="1.10128">
        <ele>273.277002</ele>
        <time>2022-05-01T09:33:31.708Z</time>
      </trkpt>
      <trkpt lat="44.56105" lon="1.10115">
        <ele>272.972472</ele>
        <time>2022-05-01T09:33:38.693Z</time>
      </trkpt>
      <trkpt lat="44.56105" lon="1.10101">
        <ele>272.655719</ele>
        <time>2022-05-01T09:33:46.685Z</time>
      </trkpt>
      <trkpt lat="44.56108" lon="1.10089">
        <ele>272.371213</ele>
        <time>2022-05-01T09:33:53.692Z</time>
      </trkpt>
      <trkpt lat="44.56113" lon="1.10077">
        <ele>272.067809</ele>
        <time>2022-05-01T09:34:00.692Z</time>
      </trkpt>
      <trkpt lat="44.56122" lon="1.10067">
        <ele>271.717964</ele>
        <time>2022-05-01T09:34:07.714Z</time>
      </trkpt>
      <trkpt lat="44.56129" lon="1.10057">
        <ele>271.416843</ele>
        <time>2022-05-01T09:34:14.693Z</time>
      </trkpt>
      <trkpt lat="44.56135" lon="1.10048">
        <ele>270.997631</ele>
        <time>2022-05-01T09:34:22.702Z</time>
      </trkpt>
      <trkpt lat="44.56143" lon="1.10039">
        <ele>270.433107</ele>
        <time>2022-05-01T09:34:31.702Z</time>
      </trkpt>
      <trkpt lat="44.56151" lon="1.1003">
        <ele>269.883671</ele>
        <time>2022-05-01T09:34:38.705Z</time>
      </trkpt>
      <trkpt lat="44.56159" lon="1.10023">
        <ele>269.379156</ele>
        <time>2022-05-01T09:34:48.703Z</time>
      </trkpt>
      <trkpt lat="44.56167" lon="1.10017">
        <ele>268.855396</ele>
        <time>2022-05-01T09:34:55.714Z</time>
      </trkpt>
      <trkpt lat="44.56178" lon="1.10017">
        <ele>268.288953</ele>
        <time>2022-05-01T09:35:02.705Z</time>
      </trkpt>
      <trkpt lat="44.56188" lon="1.10022">
        <ele>267.707645</ele>
        <time>2022-05-01T09:35:09.704Z</time>
      </trkpt>
      <trkpt lat="44.56197" lon="1.10025">
        <ele>267.155195</ele>
        <time>2022-05-01T09:35:17.699Z</time>
      </trkpt>
      <trkpt lat="44.56207" lon="1.10029">
        <ele>266.611657</ele>
        <time>2022-05-01T09:35:25.712Z</time>
      </trkpt>
      <trkpt lat="44.56216" lon="1.10029">
        <ele>266.099981</ele>
        <time>2022-05-01T09:35:32.699Z</time>
      </trkpt>
      <trkpt lat="44.56226" lon="1.10028">
        <ele>265.588006</ele>
        <time>2022-05-01T09:35:39.693Z</time>
      </trkpt>
      <trkpt lat="44.56234" lon="1.10027">
        <ele>265.094055</ele>
        <time>2022-05-01T09:35:48.701Z</time>
      </trkpt>
      <trkpt lat="44.56244" lon="1.10031">
        <ele>264.532796</ele>
        <time>2022-05-01T09:35:56.684Z</time>
      </trkpt>
      <trkpt lat="44.56254" lon="1.10029">
        <ele>263.991079</ele>
        <time>2022-05-01T09:36:05.705Z</time>
      </trkpt>
      <trkpt lat="44.56263" lon="1.10028">
        <ele>263.48879</ele>
        <time>2022-05-01T09:36:11.703Z</time>
      </trkpt>
      <trkpt lat="44.56273" lon="1.10032">
        <ele>262.953974</ele>
        <time>2022-05-01T09:36:20.694Z</time>
      </trkpt>
      <trkpt lat="44.56282" lon="1.10031">
        <ele>262.408134</ele>
        <time>2022-05-01T09:36:29.708Z</time>
      </trkpt>
      <trkpt lat="44.56291" lon="1.10028">
        <ele>261.901183</ele>
        <time>2022-05-01T09:36:35.708Z</time>
      </trkpt>
      <trkpt lat="44.563" lon="1.10023">
        <ele>261.401331</ele>
        <time>2022-05-01T09:36:42.681Z</time>
      </trkpt>
      <trkpt lat="44.56309" lon="1.10018">
        <ele>261.120136</ele>
        <time>2022-05-01T09:36:51.683Z</time>
      </trkpt>
      <trkpt lat="44.56317" lon="1.10014">
        <ele>260.849205</ele>
        <time>2022-05-01T09:36:59.699Z</time>
      </trkpt>
      <trkpt lat="44.56325" lon="1.10006">
        <ele>260.585335</ele>
        <time>2022-05-01T09:37:06.674Z</time>
      </trkpt>
      <trkpt lat="44.56334" lon="1.10004">
        <ele>260.31701</ele>
        <time>2022-05-01T09:37:13.684Z</time>
      </trkpt>
      <trkpt lat="44.56342" lon="1.09999">
        <ele>260.033837</ele>
        <time>2022-05-01T09:37:20.687Z</time>
      </trkpt>
      <trkpt lat="44.56352" lon="1.09998">
        <ele>259.751881</ele>
        <time>2022-05-01T09:37:26.683Z</time>
      </trkpt>
      <trkpt lat="44.56361" lon="1.1">
        <ele>259.471657</ele>
        <time>2022-05-01T09:37:37.698Z</time>
      </trkpt>
      <trkpt lat="44.56371" lon="1.09999">
        <ele>259.186779</ele>
        <time>2022-05-01T09:37:47.693Z</time>
      </trkpt>
      <trkpt lat="44.56381" lon="1.1">
        <ele>258.893813</ele>
        <time>2022-05-01T09:37:54.703Z</time>
      </trkpt>
      <trkpt lat="44.56391" lon="1.10003">
        <ele>258.588567</ele>
        <time>2022-05-01T09:37:59.698Z</time>
      </trkpt>
      <trkpt lat="44.56399" lon="1.09996">
        <ele>258.316768</ele>
        <time>2022-05-01T09:38:16.667Z</time>
      </trkpt>
      <trkpt lat="44.56393" lon="1.09985">
        <ele>258.025706</ele>
        <time>2022-05-01T09:38:25.672Z</time>
      </trkpt>
      <trkpt lat="44.56385" lon="1.09974">
        <ele>257.706866</ele>
        <time>2022-05-01T09:38:32.695Z</time>
      </trkpt>
      <trkpt lat="44.56379" lon="1.09965">
        <ele>257.427316</ele>
        <time>2022-05-01T09:38:41.677Z</time>
      </trkpt>
      <trkpt lat="44.5637" lon="1.09961">
        <ele>257.155071</ele>
        <time>2022-05-01T09:38:49.686Z</time>
      </trkpt>
      <trkpt lat="44.56364" lon="1.09949">
        <ele>256.857645</ele>
        <time>2022-05-01T09:38:56.689Z</time>
      </trkpt>
      <trkpt lat="44.56358" lon="1.09939">
        <ele>256.588923</ele>
        <time>2022-05-01T09:39:05.684Z</time>
      </trkpt>
      <trkpt lat="44.56352" lon="1.09928">
        <ele>256.283738</ele>
        <time>2022-05-01T09:39:12.700Z</time>
      </trkpt>
      <trkpt lat="44.56343" lon="1.09921">
        <ele>256.434654</ele>
        <time>2022-05-01T09:39:18.689Z</time>
      </trkpt>
      <trkpt lat="44.56337" lon="1.09911">
        <ele>257.240048</ele>
        <time>2022-05-01T09:39:24.695Z</time>
      </trkpt>
      <trkpt lat="44.56332" lon="1.09897">
        <ele>258.125387</ele>
        <time>2022-05-01T09:39:32.692Z</time>
      </trkpt>
      <trkpt lat="44.56328" lon="1.09885">
        <ele>258.894718</ele>
        <time>2022-05-01T09:39:40.691Z</time>
      </trkpt>
      <trkpt lat="44.56331" lon="1.09872">
        <ele>259.69065</ele>
        <time>2022-05-01T09:39:49.687Z</time>
      </trkpt>
      <trkpt lat="44.56334" lon="1.09859">
        <ele>260.495326</ele>
        <time>2022-05-01T09:39:56.689Z</time>
      </trkpt>
      <trkpt lat="44.5634" lon="1.09848">
        <ele>261.324515</ele>
        <time>2022-05-01T09:40:02.723Z</time>
      </trkpt>
      <trkpt lat="44.56345" lon="1.09836">
        <ele>262.108898</ele>
        <time>2022-05-01T09:40:08.685Z</time>
      </trkpt>
      <trkpt lat="44.56352" lon="1.09826">
        <ele>262.868943</ele>
        <time>2022-05-01T09:40:18.705Z</time>
      </trkpt>
      <trkpt lat="44.56356" lon="1.09813">
        <ele>263.693823</ele>
        <time>2022-05-01T09:40:26.682Z</time>
      </trkpt>
      <trkpt lat="44.5636" lon="1.09801">
        <ele>264.499488</ele>
        <time>2022-05-01T09:40:35.692Z</time>
      </trkpt>
      <trkpt lat="44.56365" lon="1.0979">
        <ele>265.260965</ele>
        <time>2022-05-01T09:40:41.701Z</time>
      </trkpt>
      <trkpt lat="44.56372" lon="1.09781">
        <ele>266.023424</ele>
        <time>2022-05-01T09:40:47.703Z</time>
      </trkpt>
      <trkpt lat="44.56375" lon="1.09768">
        <ele>266.837822</ele>
        <time>2022-05-01T09:40:55.708Z</time>
      </trkpt>
      <trkpt lat="44.56381" lon="1.09757">
        <ele>267.598624</ele>
        <time>2022-05-01T09:41:04.696Z</time>
      </trkpt>
      <trkpt lat="44.56389" lon="1.09751">
        <ele>268.351704</ele>
        <time>2022-05-01T09:41:11.693Z</time>
      </trkpt>
      <trkpt lat="44.56396" lon="1.09744">
        <ele>269.095355</ele>
        <time>2022-05-01T09:41:17.705Z</time>
      </trkpt>
      <trkpt lat="44.56404" lon="1.09736">
        <ele>269.875609</ele>
        <time>2022-05-01T09:41:24.693Z</time>
      </trkpt>
      <trkpt lat="44.56413" lon="1.0973">
        <ele>270.653059</ele>
        <time>2022-05-01T09:41:34.685Z</time>
      </trkpt>
      <trkpt lat="44.56419" lon="1.0972">
        <ele>271.303479</ele>
        <time>2022-05-01T09:41:43.686Z</time>
      </trkpt>
      <trkpt lat="44.56427" lon="1.09713">
        <ele>271.960449</ele>
        <time>2022-05-01T09:41:51.698Z</time>
      </trkpt>
      <trkpt lat="44.56431" lon="1.09701">
        <ele>272.606775</ele>
        <time>2022-05-01T09:42:00.678Z</time>
      </trkpt>
      <trkpt lat="44.56437" lon="1.0969">
        <ele>273.259565</ele>
        <time>2022-05-01T09:42:08.713Z</time>
      </trkpt>
      <trkpt lat="44.56443" lon="1.0968">
        <ele>273.902698</ele>
        <time>2022-05-01T09:42:19.694Z</time>
      </trkpt>
      <trkpt lat="44.56443" lon="1.09667">
        <ele>274.55823</ele>
        <time>2022-05-01T09:42:26.714Z</time>
      </trkpt>
      <trkpt lat="44.56446" lon="1.09654">
        <ele>275.20303</ele>
        <time>2022-05-01T09:42:33.705Z</time>
      </trkpt>
      <trkpt lat="44.56444" lon="1.09641">
        <ele>275.854243</ele>
        <time>2022-05-01T09:42:42.679Z</time>
      </trkpt>
      <trkpt lat="44.56444" lon="1.09629">
        <ele>276.469948</ele>
        <time>2022-05-01T09:42:52.696Z</time>
      </trkpt>
      <trkpt lat="44.5644" lon="1.09617">
        <ele>277.120114</ele>
        <time>2022-05-01T09:42:59.699Z</time>
      </trkpt>
      <trkpt lat="44.5644" lon="1.09603">
        <ele>277.784556</ele>
        <time>2022-05-01T09:43:08.690Z</time>
      </trkpt>
      <trkpt lat="44.56436" lon="1.09591">
        <ele>278.425154</ele>
        <time>2022-05-01T09:43:15.707Z</time>
      </trkpt>
      <trkpt lat="44.56434" lon="1.09579">
        <ele>279.047815</ele>
        <time>2022-05-01T09:43:23.695Z</time>
      </trkpt>
      <trkpt lat="44.56431" lon="1.09566">
        <ele>279.685336</ele>
        <time>2022-05-01T09:43:31.697Z</time>
      </trkpt>
      <trkpt lat="44.56424" lon="1.09557">
        <ele>280.331206</ele>
        <time>2022-05-01T09:43:42.701Z</time>
      </trkpt>
      <trkpt lat="44.56421" lon="1.09545">
        <ele>280.958307</ele>
        <time>2022-05-01T09:43:51.698Z</time>
      </trkpt>
      <trkpt lat="44.56414" lon="1.09534">
        <ele>281.63644</ele>
        <time>2022-05-01T09:43:59.706Z</time>
      </trkpt>
      <trkpt lat="44.56409" lon="1.09522">
        <ele>282.314274</ele>
        <time>2022-05-01T09:44:05.711Z</time>
      </trkpt>
      <trkpt lat="44.56403" lon="1.09513">
        <ele>282.941081</ele>
        <time>2022-05-01T09:44:12.697Z</time>
      </trkpt>
      <trkpt lat="44.56397" lon="1.09502">
        <ele>282.912311</ele>
        <time>2022-05-01T09:44:20.695Z</time>
      </trkpt>
      <trkpt lat="44.56393" lon="1.0949">
        <ele>282.66985</ele>
        <time>2022-05-01T09:44:28.693Z</time>
      </trkpt>
      <trkpt lat="44.56387" lon="1.0948">
        <ele>282.427397</ele>
        <time>2022-05-01T09:44:35.687Z</time>
      </trkpt>
      <trkpt lat="44.56381" lon="1.0947">
        <ele>282.194589</ele>
        <time>2022-05-01T09:44:45.703Z</time>
      </trkpt>
      <trkpt lat="44.56379" lon="1.09458">
        <ele>281.958876</ele>
        <time>2022-05-01T09:44:55.707Z</time>
      </trkpt>
      <trkpt lat="44.56375" lon="1.09447">
        <ele>281.726861</ele>
        <time>2022-05-01T09:45:03.707Z</time>
      </trkpt>
      <trkpt lat="44.5637" lon="1.09435">
        <ele>281.48269</ele>
        <time>2022-05-01T09:45:12.698Z</time>
      </trkpt>
      <trkpt lat="44.56365" lon="1.09424">
        <ele>281.224626</ele>
        <time>2022-05-01T09:45:20.684Z</time>
      </trkpt>
      <trkpt lat="44.56364" lon="1.0941">
        <ele>280.973499</ele>
        <time>2022-05-01T09:45:26.669Z</time>
      </trkpt>
      <trkpt lat="44.56363" lon="1.09397">
        <ele>280.729513</ele>
        <time>2022-05-01T09:45:35.706Z</time>
      </trkpt>
      <trkpt lat="44.56367" lon="1.09384">
        <ele>280.469203</ele>
        <time>2022-05-01T09:45:43.698Z</time>
      </trkpt>
      <trkpt lat="44.56372" lon="1.09371">
        <ele>280.195077</ele>
        <time>2022-05-01T09:45:51.684Z</time>
      </trkpt>
      <trkpt lat="44.56375" lon="1.09358">
        <ele>279.947722</ele>
        <time>2022-05-01T09:45:58.714Z</time>
      </trkpt>
      <trkpt lat="44.56379" lon="1.09346">
        <ele>279.70282</ele>
        <time>2022-05-01T09:46:05.703Z</time>
      </trkpt>
      <trkpt lat="44.56382" lon="1.09333">
        <ele>279.45375</ele>
        <time>2022-05-01T09:46:13.693Z</time>
      </trkpt>
      <trkpt lat="44.56386" lon="1.0932">
        <ele>279.202019</ele>
        <time>2022-05-01T09:46:19.715Z</time>
      </trkpt>
      <trkpt lat="44.56388" lon="1.09308">
        <ele>278.968221</ele>
        <time>2022-05-01T09:46:26.692Z</time>
      </trkpt>
      <trkpt lat="44.56391" lon="1.09295">
        <ele>278.725099</ele>
        <time>2022-05-01T09:46:33.702Z</time>
      </trkpt>
      <trkpt lat="44.56393" lon="1.09283">
        <ele>278.491505</ele>
        <time>2022-05-01T09:46:38.697Z</time>
      </trkpt>
      <trkpt lat="44.56392" lon="1.09269">
        <ele>278.306128</ele>
        <time>2022-05-01T09:46:44.689Z</time>
      </trkpt>
      <trkpt lat="44.56396" lon="1.09255">
        <ele>278.136686</ele>
        <time>2022-05-01T09:46:52.703Z</time>
      </trkpt>
      <trkpt lat="44.56394" lon="1.09243">
        <ele>277.986512</ele>
        <time>2022-05-01T09:47:00.705Z</time>
      </trkpt>
      <trkpt lat="44.5639" lon="1.09231">
        <ele>277.83021</ele>
        <time>2022-05-01T09:47:08.696Z</time>
      </trkpt>
      <trkpt lat="44.56385" lon="1.09218">
        <ele>277.653102</ele>
        <time>2022-05-01T09:47:17.698Z</time>
      </trkpt>
      <trkpt lat="44.56378" lon="1.09207">
        <ele>277.482783</ele>
        <time>2022-05-01T09:47:23.689Z</time>
      </trkpt>
      <trkpt lat="44.56371" lon="1.09197">
        <ele>277.317604</ele>
        <time>2022-05-01T09:47:30.710Z</time>
      </trkpt>
      <trkpt lat="44.56365" lon="1.09187">
        <ele>277.159281</ele>
        <time>2022-05-01T09:47:37.715Z</time>
      </trkpt>
      <trkpt lat="44.56358" lon="1.09178">
        <ele>277.000375</ele>
        <time>2022-05-01T09:47:43.698Z</time>
      </trkpt>
      <trkpt lat="44.56351" lon="1.09169">
        <ele>276.848838</ele>
        <time>2022-05-01T09:47:50.703Z</time>
      </trkpt>
      <trkpt lat="44.56346" lon="1.09159">
        <ele>276.696364</ele>
        <time>2022-05-01T09:47:57.694Z</time>
      </trkpt>
      <trkpt lat="44.56338" lon="1.09149">
        <ele>276.528587</ele>
        <time>2022-05-01T09:48:04.702Z</time>
      </trkpt>
      <trkpt lat="44.56332" lon="1.0914">
        <ele>276.37385</ele>
        <time>2022-05-01T09:48:11.698Z</time>
      </trkpt>
      <trkpt lat="44.56325" lon="1.09129">
        <ele>276.202377</ele>
        <time>2022-05-01T09:48:19.696Z</time>
      </trkpt>
      <trkpt lat="44.56318" lon="1.0912">
        <ele>276.052902</ele>
        <time>2022-05-01T09:48:26.674Z</time>
      </trkpt>
      <trkpt lat="44.56312" lon="1.09111">
        <ele>275.895326</ele>
        <time>2022-05-01T09:48:33.677Z</time>
      </trkpt>
      <trkpt lat="44.56305" lon="1.091">
        <ele>275.726662</ele>
        <time>2022-05-01T09:48:40.699Z</time>
      </trkpt>
      <trkpt lat="44.563" lon="1.09089">
        <ele>275.571939</ele>
        <time>2022-05-01T09:48:46.672Z</time>
      </trkpt>
      <trkpt lat="44.56294" lon="1.09077">
        <ele>275.664423</ele>
        <time>2022-05-01T09:48:53.690Z</time>
      </trkpt>
      <trkpt lat="44.56289" lon="1.09065">
        <ele>276.215303</ele>
        <time>2022-05-01T09:49:01.683Z</time>
      </trkpt>
      <trkpt lat="44.56285" lon="1.09053">
        <ele>276.722644</ele>
        <time>2022-05-01T09:49:08.700Z</time>
      </trkpt>
      <trkpt lat="44.56279" lon="1.09042">
        <ele>277.251105</ele>
        <time>2022-05-01T09:49:16.677Z</time>
      </trkpt>
      <trkpt lat="44.56273" lon="1.09032">
        <ele>277.767033</ele>
        <time>2022-05-01T09:49:24.707Z</time>
      </trkpt>
      <trkpt lat="44.56267" lon="1.09021">
        <ele>278.276913</ele>
        <time>2022-05-01T09:49:32.680Z</time>
      </trkpt>
      <trkpt lat="44.56261" lon="1.09011">
        <ele>278.809682</ele>
        <time>2022-05-01T09:49:40.699Z</time>
      </trkpt>
      <trkpt lat="44.56255" lon="1.08999">
        <ele>279.363426</ele>
        <time>2022-05-01T09:49:48.714Z</time>
      </trkpt>
      <trkpt lat="44.56248" lon="1.08989">
        <ele>279.881964</ele>
        <time>2022-05-01T09:49:56.675Z</time>
      </trkpt>
      <trkpt lat="44.56241" lon="1.08982">
        <ele>280.384822</ele>
        <time>2022-05-01T09:50:05.698Z</time>
      </trkpt>
      <trkpt lat="44.56232" lon="1.08976">
        <ele>280.889127</ele>
        <time>2022-05-01T09:50:11.698Z</time>
      </trkpt>
      <trkpt lat="44.5623" lon="1.08962">
        <ele>281.444428</ele>
        <time>2022-05-01T09:50:18.710Z</time>
      </trkpt>
      <trkpt lat="44.56227" lon="1.08948">
        <ele>281.971042</ele>
        <time>2022-05-01T09:50:25.706Z</time>
      </trkpt>
      <trkpt lat="44.56225" lon="1.08935">
        <ele>282.485259</ele>
        <time>2022-05-01T09:50:31.692Z</time>
      </trkpt>
      <trkpt lat="44.56222" lon="1.08922">
        <ele>283.01143</ele>
        <time>2022-05-01T09:50:40.705Z</time>
      </trkpt>
      <trkpt lat="44.56218" lon="1.08911">
        <ele>283.510695</ele>
        <time>2022-05-01T09:50:46.672Z</time>
      </trkpt>
      <trkpt lat="44.56216" lon="1.08897">
        <ele>284.034753</ele>
        <time>2022-05-01T09:50:53.700Z</time>
      </trkpt>
      <trkpt lat="44.56213" lon="1.08885">
        <ele>284.524678</ele>
        <time>2022-05-01T09:51:00.705Z</time>
      </trkpt>
      <trkpt lat="44.5621" lon="1.08873">
        <ele>285.043535</ele>
        <time>2022-05-01T09:51:07.704Z</time>
      </trkpt>
      <trkpt lat="44.56206" lon="1.0886">
        <ele>285.287975</ele>
        <time>2022-05-01T09:51:14.705Z</time>
      </trkpt>
      <trkpt lat="44.56201" lon="1.08849">
        <ele>285.43802</ele>
        <time>2022-05-01T09:51:21.714Z</time>
      </trkpt>
      <trkpt lat="44.56195" lon="1.08838">
        <ele>285.599391</ele>
        <time>2022-05-01T09:51:28.687Z</time>
      </trkpt>
      <trkpt lat="44.56189" lon="1.08826">
        <ele>285.763629</ele>
        <time>2022-05-01T09:51:35.691Z</time>
      </trkpt>
      <trkpt lat="44.56182" lon="1.08816">
        <ele>285.925367</ele>
        <time>2022-05-01T09:51:43.714Z</time>
      </trkpt>
      <trkpt lat="44.56175" lon="1.08807">
        <ele>286.083867</ele>
        <time>2022-05-01T09:51:51.697Z</time>
      </trkpt>
      <trkpt lat="44.56167" lon="1.088">
        <ele>286.246105</ele>
        <time>2022-05-01T09:51:59.708Z</time>
      </trkpt>
      <trkpt lat="44.56162" lon="1.08787">
        <ele>286.411372</ele>
        <time>2022-05-01T09:52:09.703Z</time>
      </trkpt>
      <trkpt lat="44.56158" lon="1.08775">
        <ele>286.559621</ele>
        <time>2022-05-01T09:52:16.679Z</time>
      </trkpt>
      <trkpt lat="44.5615" lon="1.08767">
        <ele>286.736378</ele>
        <time>2022-05-01T09:52:22.705Z</time>
      </trkpt>
      <trkpt lat="44.56142" lon="1.08759">
        <ele>286.892406</ele>
        <time>2022-05-01T09:52:28.686Z</time>
      </trkpt>
      <trkpt lat="44.56135" lon="1.0875">
        <ele>287.048096</ele>
        <time>2022-05-01T09:52:35.685Z</time>
      </trkpt>
      <trkpt lat="44.56127" lon="1.08742">
        <ele>287.205062</ele>
        <time>2022-05-01T09:52:42.707Z</time>
      </trkpt>
      <trkpt lat="44.56119" lon="1.08735">
        <ele>287.366279</ele>
        <time>2022-05-01T09:52:49.704Z</time>
      </trkpt>
      <trkpt lat="44.5611" lon="1.08729">
        <ele>287.516929</ele>
        <time>2022-05-01T09:52:56.679Z</time>
      </trkpt>
      <trkpt lat="44.56104" lon="1.08718">
        <ele>287.679493</ele>
        <time>2022-05-01T09:53:03.691Z</time>
      </trkpt>
      <trkpt lat="44.56097" lon="1.08709">
        <ele>287.839563</ele>
        <time>2022-05-01T09:53:10.708Z</time>
      </trkpt>
      <trkpt lat="44.56092" lon="1.08697">
        <ele>287.99976</ele>
        <time>2022-05-01T09:53:17.689Z</time>
      </trkpt>
      <trkpt lat="44.56089" lon="1.08685">
        <ele>288.057387</ele>
        <time>2022-05-01T09:53:25.698Z</time>
      </trkpt>
      <trkpt lat="44.56084" lon="1.08673">
        <ele>287.941982</ele>
        <time>2022-05-01T09:53:33.704Z</time>
      </trkpt>
      <trkpt lat="44.56078" lon="1.08662">
        <ele>287.819662</ele>
        <time>2022-05-01T09:53:40.702Z</time>
      </trkpt>
      <trkpt lat="44.56072" lon="1.08652">
        <ele>287.70376</ele>
        <time>2022-05-01T09:53:47.702Z</time>
      </trkpt>
      <trkpt lat="44.56064" lon="1.08644">
        <ele>287.587395</ele>
        <time>2022-05-01T09:53:56.681Z</time>
      </trkpt>
      <trkpt lat="44.56056" lon="1.08636">
        <ele>287.465705</ele>
        <time>2022-05-01T09:54:03.704Z</time>
      </trkpt>
      <trkpt lat="44.5605" lon="1.08625">
        <ele>287.342631</ele>
        <time>2022-05-01T09:54:12.689Z</time>
      </trkpt>
      <trkpt lat="44.56041" lon="1.08619">
        <ele>287.219767</ele>
        <time>2022-05-01T09:54:19.717Z</time>
      </trkpt>
      <trkpt lat="44.56032" lon="1.0861">
        <ele>287.089727</ele>
        <time>2022-05-01T09:54:25.708Z</time>
      </trkpt>
      <trkpt lat="44.56024" lon="1.08602">
        <ele>286.966218</ele>
        <time>2022-05-01T09:54:32.701Z</time>
      </trkpt>
      <trkpt lat="44.56017" lon="1.08594">
        <ele>286.855286</ele>
        <time>2022-05-01T09:54:37.709Z</time>
      </trkpt>
      <trkpt lat="44.5601" lon="1.08584">
        <ele>286.734977</ele>
        <time>2022-05-01T09:54:45.701Z</time>
      </trkpt>
      <trkpt lat="44.56003" lon="1.08573">
        <ele>286.608616</ele>
        <time>2022-05-01T09:54:52.683Z</time>
      </trkpt>
      <trkpt lat="44.55995" lon="1.08564">
        <ele>286.479813</ele>
        <time>2022-05-01T09:55:00.694Z</time>
      </trkpt>
      <trkpt lat="44.55987" lon="1.08556">
        <ele>286.361421</ele>
        <time>2022-05-01T09:55:07.725Z</time>
      </trkpt>
      <trkpt lat="44.55979" lon="1.08549">
        <ele>286.245889</ele>
        <time>2022-05-01T09:55:13.723Z</time>
      </trkpt>
      <trkpt lat="44.55971" lon="1.0854">
        <ele>286.114976</ele>
        <time>2022-05-01T09:55:21.697Z</time>
      </trkpt>
      <trkpt lat="44.55962" lon="1.08534">
        <ele>286.000561</ele>
        <time>2022-05-01T09:55:26.678Z</time>
      </trkpt>
      <trkpt lat="44.55954" lon="1.08527">
        <ele>285.802827</ele>
        <time>2022-05-01T09:55:33.712Z</time>
      </trkpt>
      <trkpt lat="44.55945" lon="1.08521">
        <ele>284.987044</ele>
        <time>2022-05-01T09:55:42.719Z</time>
      </trkpt>
      <trkpt lat="44.55936" lon="1.08516">
        <ele>284.226075</ele>
        <time>2022-05-01T09:55:50.706Z</time>
      </trkpt>
      <trkpt lat="44.55927" lon="1.08512">
        <ele>283.452158</ele>
        <time>2022-05-01T09:55:57.714Z</time>
      </trkpt>
      <trkpt lat="44.55918" lon="1.08508">
        <ele>282.736635</ele>
        <time>2022-05-01T09:56:03.708Z</time>
      </trkpt>
      <trkpt lat="44.55909" lon="1.08504">
        <ele>281.982045</ele>
        <time>2022-05-01T09:56:10.709Z</time>
      </trkpt>
      <trkpt lat="44.55901" lon="1.08499">
        <ele>281.232402</ele>
        <time>2022-05-01T09:56:17.708Z</time>
      </trkpt>
      <trkpt lat="44.55891" lon="1.08495">
        <ele>280.420941</ele>
        <time>2022-05-01T09:56:25.690Z</time>
      </trkpt>
      <trkpt lat="44.55881" lon="1.08491">
        <ele>279.62638</ele>
        <time>2022-05-01T09:56:33.705Z</time>
      </trkpt>
      <trkpt lat="44.55878" lon="1.08478">
        <ele>278.824525</ele>
        <time>2022-05-01T09:56:40.701Z</time>
      </trkpt>
      <trkpt lat="44.55881" lon="1.08466">
        <ele>278.103464</ele>
        <time>2022-05-01T09:56:45.694Z</time>
      </trkpt>
      <trkpt lat="44.55883" lon="1.08452">
        <ele>277.298578</ele>
        <time>2022-05-01T09:56:53.709Z</time>
      </trkpt>
      <trkpt lat="44.55884" lon="1.08438">
        <ele>276.516869</ele>
        <time>2022-05-01T09:57:01.691Z</time>
      </trkpt>
      <trkpt lat="44.55887" lon="1.08425">
        <ele>275.736601</ele>
        <time>2022-05-01T09:57:08.694Z</time>
      </trkpt>
      <trkpt lat="44.55893" lon="1.08413">
        <ele>274.937889</ele>
        <time>2022-05-01T09:57:17.701Z</time>
      </trkpt>
      <trkpt lat="44.55898" lon="1.08402">
        <ele>274.186276</ele>
        <time>2022-05-01T09:57:26.678Z</time>
      </trkpt>
      <trkpt lat="44.55901" lon="1.0839">
        <ele>273.451075</ele>
        <time>2022-05-01T09:57:54.725Z</time>
      </trkpt>
      <trkpt lat="44.55902" lon="1.08377">
        <ele>272.725285</ele>
        <time>2022-05-01T09:58:03.712Z</time>
      </trkpt>
      <trkpt lat="44.55896" lon="1.08368">
        <ele>272.005873</ele>
        <time>2022-05-01T09:58:15.702Z</time>
      </trkpt>
      <trkpt lat="44.55895" lon="1.08354">
        <ele>271.259245</ele>
        <time>2022-05-01T09:58:23.695Z</time>
      </trkpt>
      <trkpt lat="44.55887" lon="1.08347">
        <ele>270.638279</ele>
        <time>2022-05-01T09:58:33.697Z</time>
      </trkpt>
      <trkpt lat="44.55878" lon="1.08341">
        <ele>269.942276</ele>
        <time>2022-05-01T09:58:46.687Z</time>
      </trkpt>
      <trkpt lat="44.5587" lon="1.08333">
        <ele>269.313115</ele>
        <time>2022-05-01T09:58:56.692Z</time>
      </trkpt>
      <trkpt lat="44.55862" lon="1.08327">
        <ele>268.665782</ele>
        <time>2022-05-01T09:59:07.691Z</time>
      </trkpt>
      <trkpt lat="44.55854" lon="1.08321">
        <ele>268.049414</ele>
        <time>2022-05-01T09:59:20.701Z</time>
      </trkpt>
      <trkpt lat="44.55845" lon="1.08317">
        <ele>267.416554</ele>
        <time>2022-05-01T09:59:28.710Z</time>
      </trkpt>
      <trkpt lat="44.55835" lon="1.08311">
        <ele>266.722072</ele>
        <time>2022-05-01T09:59:45.711Z</time>
      </trkpt>
      <trkpt lat="44.55828" lon="1.08303">
        <ele>266.101379</ele>
        <time>2022-05-01T09:59:58.688Z</time>
      </trkpt>
      <trkpt lat="44.55819" lon="1.08299">
        <ele>265.438354</ele>
        <time>2022-05-01T10:00:07.708Z</time>
      </trkpt>
      <trkpt lat="44.55813" lon="1.08288">
        <ele>264.773453</ele>
        <time>2022-05-01T10:00:18.706Z</time>
      </trkpt>
      <trkpt lat="44.55805" lon="1.08283">
        <ele>264.160338</ele>
        <time>2022-05-01T10:00:27.708Z</time>
      </trkpt>
      <trkpt lat="44.55797" lon="1.08275">
        <ele>263.514221</ele>
        <time>2022-05-01T10:00:37.710Z</time>
      </trkpt>
      <trkpt lat="44.55788" lon="1.08273">
        <ele>262.907464</ele>
        <time>2022-05-01T10:00:48.715Z</time>
      </trkpt>
      <trkpt lat="44.55778" lon="1.08276">
        <ele>262.237729</ele>
        <time>2022-05-01T10:00:56.699Z</time>
      </trkpt>
      <trkpt lat="44.5577" lon="1.08272">
        <ele>261.61763</ele>
        <time>2022-05-01T10:01:02.701Z</time>
      </trkpt>
      <trkpt lat="44.55761" lon="1.08272">
        <ele>260.99748</ele>
        <time>2022-05-01T10:01:13.704Z</time>
      </trkpt>
      <trkpt lat="44.55752" lon="1.08276">
        <ele>260.388334</ele>
        <time>2022-05-01T10:01:18.699Z</time>
      </trkpt>
      <trkpt lat="44.55742" lon="1.08276">
        <ele>259.727801</ele>
        <time>2022-05-01T10:01:25.713Z</time>
      </trkpt>
      <trkpt lat="44.55733" lon="1.0828">
        <ele>259.03778</ele>
        <time>2022-05-01T10:01:34.707Z</time>
      </trkpt>
      <trkpt lat="44.55725" lon="1.08284">
        <ele>258.284264</ele>
        <time>2022-05-01T10:01:43.715Z</time>
      </trkpt>
      <trkpt lat="44.55715" lon="1.08286">
        <ele>257.495993</ele>
        <time>2022-05-01T10:01:49.698Z</time>
      </trkpt>
      <trkpt lat="44.55706" lon="1.08283">
        <ele>256.691293</ele>
        <time>2022-05-01T10:01:57.703Z</time>
      </trkpt>
      <trkpt lat="44.55699" lon="1.08273">
        <ele>255.909796</ele>
        <time>2022-05-01T10:02:08.695Z</time>
      </trkpt>
      <trkpt lat="44.5569" lon="1.08267">
        <ele>255.087619</ele>
        <time>2022-05-01T10:02:17.697Z</time>
      </trkpt>
      <trkpt lat="44.55681" lon="1.08263">
        <ele>254.285102</ele>
        <time>2022-05-01T10:02:26.697Z</time>
      </trkpt>
      <trkpt lat="44.55671" lon="1.08263">
        <ele>253.484033</ele>
        <time>2022-05-01T10:02:33.686Z</time>
      </trkpt>
      <trkpt lat="44.55662" lon="1.08267">
        <ele>252.684882</ele>
        <time>2022-05-01T10:02:43.713Z</time>
      </trkpt>
      <trkpt lat="44.55653" lon="1.0827">
        <ele>251.93922</ele>
        <time>2022-05-01T10:02:52.703Z</time>
      </trkpt>
      <trkpt lat="44.55644" lon="1.08274">
        <ele>251.144587</ele>
        <time>2022-05-01T10:03:04.692Z</time>
      </trkpt>
      <trkpt lat="44.55635" lon="1.08271">
        <ele>250.396248</ele>
        <time>2022-05-01T10:03:14.684Z</time>
      </trkpt>
      <trkpt lat="44.55613" lon="1.08267">
        <ele>248.522766</ele>
        <time>2022-05-01T10:03:56.680Z</time>
      </trkpt>
      <trkpt lat="44.55603" lon="1.08263">
        <ele>247.697889</ele>
        <time>2022-05-01T10:04:03.708Z</time>
      </trkpt>
      <trkpt lat="44.55594" lon="1.08259">
        <ele>246.887479</ele>
        <time>2022-05-01T10:04:12.683Z</time>
      </trkpt>
      <trkpt lat="44.55585" lon="1.08264">
        <ele>246.082215</ele>
        <time>2022-05-01T10:04:20.705Z</time>
      </trkpt>
      <trkpt lat="44.55575" lon="1.08268">
        <ele>245.231899</ele>
        <time>2022-05-01T10:04:32.697Z</time>
      </trkpt>
      <trkpt lat="44.55566" lon="1.08272">
        <ele>244.52288</ele>
        <time>2022-05-01T10:04:48.696Z</time>
      </trkpt>
      <trkpt lat="44.55556" lon="1.08273">
        <ele>244.098466</ele>
        <time>2022-05-01T10:04:58.698Z</time>
      </trkpt>
      <trkpt lat="44.5555" lon="1.08263">
        <ele>243.686914</ele>
        <time>2022-05-01T10:05:08.708Z</time>
      </trkpt>
      <trkpt lat="44.55546" lon="1.08251">
        <ele>243.29546</ele>
        <time>2022-05-01T10:05:20.703Z</time>
      </trkpt>
      <trkpt lat="44.55544" lon="1.08239">
        <ele>242.908642</ele>
        <time>2022-05-01T10:05:33.690Z</time>
      </trkpt>
      <trkpt lat="44.55525" lon="1.0822">
        <ele>241.930172</ele>
        <time>2022-05-01T10:06:08.697Z</time>
      </trkpt>
      <trkpt lat="44.55516" lon="1.08214">
        <ele>241.525139</ele>
        <time>2022-05-01T10:06:15.696Z</time>
      </trkpt>
      <trkpt lat="44.55508" lon="1.08209">
        <ele>241.138048</ele>
        <time>2022-05-01T10:06:22.702Z</time>
      </trkpt>
      <trkpt lat="44.55498" lon="1.08204">
        <ele>240.697739</ele>
        <time>2022-05-01T10:06:31.699Z</time>
      </trkpt>
      <trkpt lat="44.55489" lon="1.08201">
        <ele>240.30634</ele>
        <time>2022-05-01T10:06:43.711Z</time>
      </trkpt>
      <trkpt lat="44.55481" lon="1.08196">
        <ele>239.91644</ele>
        <time>2022-05-01T10:06:58.705Z</time>
      </trkpt>
      <trkpt lat="44.55458" lon="1.08182">
        <ele>238.892391</ele>
        <time>2022-05-01T10:07:27.709Z</time>
      </trkpt>
      <trkpt lat="44.5545" lon="1.08176">
        <ele>238.496086</ele>
        <time>2022-05-01T10:07:33.719Z</time>
      </trkpt>
      <trkpt lat="44.55444" lon="1.08165">
        <ele>238.065232</ele>
        <time>2022-05-01T10:07:42.697Z</time>
      </trkpt>
      <trkpt lat="44.55438" lon="1.08152">
        <ele>237.625148</ele>
        <time>2022-05-01T10:07:49.708Z</time>
      </trkpt>
      <trkpt lat="44.55435" lon="1.0814">
        <ele>237.244438</ele>
        <time>2022-05-01T10:07:55.704Z</time>
      </trkpt>
      <trkpt lat="44.55432" lon="1.08127">
        <ele>236.865314</ele>
        <time>2022-05-01T10:08:02.698Z</time>
      </trkpt>
      <trkpt lat="44.55433" lon="1.08114">
        <ele>236.587134</ele>
        <time>2022-05-01T10:08:09.709Z</time>
      </trkpt>
      <trkpt lat="44.55427" lon="1.08104">
        <ele>236.30309</ele>
        <time>2022-05-01T10:08:19.704Z</time>
      </trkpt>
      <trkpt lat="44.55418" lon="1.08098">
        <ele>236.008781</ele>
        <time>2022-05-01T10:08:29.683Z</time>
      </trkpt>
      <trkpt lat="44.55409" lon="1.08091">
        <ele>235.708147</ele>
        <time>2022-05-01T10:08:38.712Z</time>
      </trkpt>
      <trkpt lat="44.554" lon="1.0809">
        <ele>235.420699</ele>
        <time>2022-05-01T10:08:50.727Z</time>
      </trkpt>
      <trkpt lat="44.55391" lon="1.08089">
        <ele>235.150794</ele>
        <time>2022-05-01T10:08:57.705Z</time>
      </trkpt>
      <trkpt lat="44.55381" lon="1.0809">
        <ele>234.850816</ele>
        <time>2022-05-01T10:09:06.706Z</time>
      </trkpt>
      <trkpt lat="44.55372" lon="1.08086">
        <ele>234.571236</ele>
        <time>2022-05-01T10:09:11.695Z</time>
      </trkpt>
      <trkpt lat="44.55363" lon="1.08089">
        <ele>234.294813</ele>
        <time>2022-05-01T10:09:19.702Z</time>
      </trkpt>
      <trkpt lat="44.55354" lon="1.0809">
        <ele>234.023516</ele>
        <time>2022-05-01T10:09:27.709Z</time>
      </trkpt>
      <trkpt lat="44.55345" lon="1.08089">
        <ele>233.75243</ele>
        <time>2022-05-01T10:09:36.680Z</time>
      </trkpt>
      <trkpt lat="44.55335" lon="1.08088">
        <ele>233.470363</ele>
        <time>2022-05-01T10:09:46.679Z</time>
      </trkpt>
      <trkpt lat="44.55326" lon="1.08088">
        <ele>233.188425</ele>
        <time>2022-05-01T10:09:54.705Z</time>
      </trkpt>
      <trkpt lat="44.55317" lon="1.08092">
        <ele>232.900245</ele>
        <time>2022-05-01T10:10:03.705Z</time>
      </trkpt>
      <trkpt lat="44.55308" lon="1.08084">
        <ele>232.587463</ele>
        <time>2022-05-01T10:10:11.691Z</time>
      </trkpt>
      <trkpt lat="44.553" lon="1.08078">
        <ele>232.303485</ele>
        <time>2022-05-01T10:10:18.687Z</time>
      </trkpt>
      <trkpt lat="44.55293" lon="1.08067">
        <ele>231.993543</ele>
        <time>2022-05-01T10:10:25.689Z</time>
      </trkpt>
      <trkpt lat="44.55287" lon="1.08055">
        <ele>231.695266</ele>
        <time>2022-05-01T10:10:32.711Z</time>
      </trkpt>
      <trkpt lat="44.55279" lon="1.08051">
        <ele>231.197246</ele>
        <time>2022-05-01T10:10:41.685Z</time>
      </trkpt>
      <trkpt lat="44.55269" lon="1.08049">
        <ele>230.492468</ele>
        <time>2022-05-01T10:10:48.701Z</time>
      </trkpt>
      <trkpt lat="44.55259" lon="1.08055">
        <ele>229.766476</ele>
        <time>2022-05-01T10:10:57.697Z</time>
      </trkpt>
      <trkpt lat="44.5525" lon="1.08055">
        <ele>229.11936</ele>
        <time>2022-05-01T10:11:04.697Z</time>
      </trkpt>
      <trkpt lat="44.5524" lon="1.08054">
        <ele>228.42148</ele>
        <time>2022-05-01T10:11:17.695Z</time>
      </trkpt>
      <trkpt lat="44.55231" lon="1.08053">
        <ele>227.752524</ele>
        <time>2022-05-01T10:11:24.696Z</time>
      </trkpt>
      <trkpt lat="44.55221" lon="1.08057">
        <ele>227.028348</ele>
        <time>2022-05-01T10:11:30.686Z</time>
      </trkpt>
      <trkpt lat="44.55211" lon="1.08056">
        <ele>226.285597</ele>
        <time>2022-05-01T10:11:36.689Z</time>
      </trkpt>
      <trkpt lat="44.552" lon="1.08057">
        <ele>225.544835</ele>
        <time>2022-05-01T10:11:43.715Z</time>
      </trkpt>
      <trkpt lat="44.55191" lon="1.08062">
        <ele>224.784087</ele>
        <time>2022-05-01T10:11:54.689Z</time>
      </trkpt>
      <trkpt lat="44.5518" lon="1.08064">
        <ele>224.061497</ele>
        <time>2022-05-01T10:12:01.704Z</time>
      </trkpt>
      <trkpt lat="44.55171" lon="1.08065">
        <ele>223.395988</ele>
        <time>2022-05-01T10:12:08.703Z</time>
      </trkpt>
      <trkpt lat="44.55161" lon="1.08065">
        <ele>222.691885</ele>
        <time>2022-05-01T10:12:13.724Z</time>
      </trkpt>
      <trkpt lat="44.55153" lon="1.08061">
        <ele>222.042843</ele>
        <time>2022-05-01T10:12:21.699Z</time>
      </trkpt>
      <trkpt lat="44.55144" lon="1.08061">
        <ele>221.395826</ele>
        <time>2022-05-01T10:12:28.701Z</time>
      </trkpt>
      <trkpt lat="44.55134" lon="1.08059">
        <ele>220.708545</ele>
        <time>2022-05-01T10:12:39.690Z</time>
      </trkpt>
      <trkpt lat="44.55124" lon="1.08061">
        <ele>220.00654</ele>
        <time>2022-05-01T10:12:50.712Z</time>
      </trkpt>
      <trkpt lat="44.55116" lon="1.08068">
        <ele>219.333603</ele>
        <time>2022-05-01T10:13:02.697Z</time>
      </trkpt>
      <trkpt lat="44.55107" lon="1.08069">
        <ele>218.507888</ele>
        <time>2022-05-01T10:13:08.708Z</time>
      </trkpt>
      <trkpt lat="44.55097" lon="1.08071">
        <ele>217.005267</ele>
        <time>2022-05-01T10:13:17.801Z</time>
      </trkpt>
      <trkpt lat="44.55089" lon="1.08076">
        <ele>215.556952</ele>
        <time>2022-05-01T10:13:25.773Z</time>
      </trkpt>
      <trkpt lat="44.5508" lon="1.08081">
        <ele>214.065152</ele>
        <time>2022-05-01T10:13:31.799Z</time>
      </trkpt>
      <trkpt lat="44.5507" lon="1.08083">
        <ele>212.466959</ele>
        <time>2022-05-01T10:13:37.777Z</time>
      </trkpt>
      <trkpt lat="44.55077" lon="1.08092">
        <ele>211.030059</ele>
        <time>2022-05-01T10:13:46.781Z</time>
      </trkpt>
      <trkpt lat="44.55069" lon="1.08102">
        <ele>209.327407</ele>
        <time>2022-05-01T10:13:54.781Z</time>
      </trkpt>
      <trkpt lat="44.55063" lon="1.08113">
        <ele>207.766359</ele>
        <time>2022-05-01T10:13:59.783Z</time>
      </trkpt>
      <trkpt lat="44.55059" lon="1.08125">
        <ele>206.306335</ele>
        <time>2022-05-01T10:14:04.810Z</time>
      </trkpt>
      <trkpt lat="44.55057" lon="1.08138">
        <ele>204.744879</ele>
        <time>2022-05-01T10:14:10.814Z</time>
      </trkpt>
      <trkpt lat="44.55063" lon="1.08149">
        <ele>203.186993</ele>
        <time>2022-05-01T10:14:20.773Z</time>
      </trkpt>
      <trkpt lat="44.55058" lon="1.08159">
        <ele>201.708574</ele>
        <time>2022-05-01T10:14:26.786Z</time>
      </trkpt>
      <trkpt lat="44.55064" lon="1.0817">
        <ele>200.111008</ele>
        <time>2022-05-01T10:14:29.771Z</time>
      </trkpt>
      <trkpt lat="44.55073" lon="1.08177">
        <ele>198.543601</ele>
        <time>2022-05-01T10:14:33.804Z</time>
      </trkpt>
      <trkpt lat="44.55066" lon="1.08186">
        <ele>197.087499</ele>
        <time>2022-05-01T10:14:41.778Z</time>
      </trkpt>
      <trkpt lat="44.55061" lon="1.08198">
        <ele>195.49878</ele>
        <time>2022-05-01T10:14:49.805Z</time>
      </trkpt>
      <trkpt lat="44.55057" lon="1.0821">
        <ele>193.966487</ele>
        <time>2022-05-01T10:14:58.808Z</time>
      </trkpt>
      <trkpt lat="44.55053" lon="1.08222">
        <ele>192.496179</ele>
        <time>2022-05-01T10:15:05.799Z</time>
      </trkpt>
      <trkpt lat="44.55052" lon="1.08237">
        <ele>190.819952</ele>
        <time>2022-05-01T10:15:15.809Z</time>
      </trkpt>
      <trkpt lat="44.55046" lon="1.0825">
        <ele>189.998323</ele>
        <time>2022-05-01T10:15:21.795Z</time>
      </trkpt>
      <trkpt lat="44.55039" lon="1.08261">
        <ele>189.584301</ele>
        <time>2022-05-01T10:15:28.816Z</time>
      </trkpt>
      <trkpt lat="44.55036" lon="1.08273">
        <ele>189.218215</ele>
        <time>2022-05-01T10:15:38.765Z</time>
      </trkpt>
      <trkpt lat="44.55023" lon="1.08302">
        <ele>188.222474</ele>
        <time>2022-05-01T10:16:24.825Z</time>
      </trkpt>
      <trkpt lat="44.55019" lon="1.08316">
        <ele>187.81014</ele>
        <time>2022-05-01T10:16:29.809Z</time>
      </trkpt>
      <trkpt lat="44.55012" lon="1.08323">
        <ele>187.421986</ele>
        <time>2022-05-01T10:16:34.807Z</time>
      </trkpt>
      <trkpt lat="44.55004" lon="1.08331">
        <ele>187.053721</ele>
        <time>2022-05-01T10:16:41.821Z</time>
      </trkpt>
      <trkpt lat="44.54994" lon="1.08335">
        <ele>186.643543</ele>
        <time>2022-05-01T10:16:47.781Z</time>
      </trkpt>
      <trkpt lat="44.54985" lon="1.08338">
        <ele>186.245583</ele>
        <time>2022-05-01T10:16:52.802Z</time>
      </trkpt>
      <trkpt lat="44.54975" lon="1.08341">
        <ele>185.850317</ele>
        <time>2022-05-01T10:16:58.822Z</time>
      </trkpt>
      <trkpt lat="44.54969" lon="1.0835">
        <ele>185.477357</ele>
        <time>2022-05-01T10:17:05.817Z</time>
      </trkpt>
      <trkpt lat="44.54961" lon="1.08356">
        <ele>185.10778</ele>
        <time>2022-05-01T10:17:12.842Z</time>
      </trkpt>
      <trkpt lat="44.54951" lon="1.08356">
        <ele>184.722776</ele>
        <time>2022-05-01T10:17:19.811Z</time>
      </trkpt>
      <trkpt lat="44.54943" lon="1.08347">
        <ele>184.316384</ele>
        <time>2022-05-01T10:17:27.817Z</time>
      </trkpt>
      <trkpt lat="44.54934" lon="1.08341">
        <ele>183.921289</ele>
        <time>2022-05-01T10:17:36.833Z</time>
      </trkpt>
      <trkpt lat="44.54926" lon="1.08333">
        <ele>183.520876</ele>
        <time>2022-05-01T10:17:43.809Z</time>
      </trkpt>
      <trkpt lat="44.54919" lon="1.08324">
        <ele>183.117273</ele>
        <time>2022-05-01T10:17:51.820Z</time>
      </trkpt>
      <trkpt lat="44.54916" lon="1.08312">
        <ele>183.03871</ele>
        <time>2022-05-01T10:17:57.807Z</time>
      </trkpt>
      <trkpt lat="44.54915" lon="1.08299">
        <ele>183.037487</ele>
        <time>2022-05-01T10:18:03.814Z</time>
      </trkpt>
      <trkpt lat="44.54909" lon="1.08287">
        <ele>183.036105</ele>
        <time>2022-05-01T10:18:10.799Z</time>
      </trkpt>
      <trkpt lat="44.54907" lon="1.08275">
        <ele>183.034887</ele>
        <time>2022-05-01T10:18:14.809Z</time>
      </trkpt>
      <trkpt lat="44.54905" lon="1.08262">
        <ele>183.033634</ele>
        <time>2022-05-01T10:18:21.790Z</time>
      </trkpt>
      <trkpt lat="44.54902" lon="1.08249">
        <ele>183.032269</ele>
        <time>2022-05-01T10:18:28.804Z</time>
      </trkpt>
      <trkpt lat="44.54904" lon="1.08234">
        <ele>183.030845</ele>
        <time>2022-05-01T10:18:35.782Z</time>
      </trkpt>
      <trkpt lat="44.549" lon="1.08222">
        <ele>183.029567</ele>
        <time>2022-05-01T10:18:42.784Z</time>
      </trkpt>
      <trkpt lat="44.54898" lon="1.0821">
        <ele>183.028339</ele>
        <time>2022-05-01T10:18:49.816Z</time>
      </trkpt>
      <trkpt lat="44.54892" lon="1.08198">
        <ele>183.02699</ele>
        <time>2022-05-01T10:18:55.784Z</time>
      </trkpt>
      <trkpt lat="44.54887" lon="1.08188">
        <ele>183.025735</ele>
        <time>2022-05-01T10:19:02.818Z</time>
      </trkpt>
      <trkpt lat="44.5488" lon="1.08177">
        <ele>183.024388</ele>
        <time>2022-05-01T10:19:10.807Z</time>
      </trkpt>
      <trkpt lat="44.54876" lon="1.08163">
        <ele>183.022905</ele>
        <time>2022-05-01T10:19:18.801Z</time>
      </trkpt>
      <trkpt lat="44.54872" lon="1.08151">
        <ele>183.021618</ele>
        <time>2022-05-01T10:19:25.817Z</time>
      </trkpt>
      <trkpt lat="44.54867" lon="1.08139">
        <ele>183.020303</ele>
        <time>2022-05-01T10:19:31.793Z</time>
      </trkpt>
      <trkpt lat="44.54863" lon="1.08126">
        <ele>183.018954</ele>
        <time>2022-05-01T10:19:40.791Z</time>
      </trkpt>
      <trkpt lat="44.54859" lon="1.08115">
        <ele>183.017729</ele>
        <time>2022-05-01T10:19:45.797Z</time>
      </trkpt>
      <trkpt lat="44.54855" lon="1.08104">
        <ele>183.0165</ele>
        <time>2022-05-01T10:19:54.803Z</time>
      </trkpt>
      <trkpt lat="44.54851" lon="1.0809">
        <ele>183.027621</ele>
        <time>2022-05-01T10:20:01.807Z</time>
      </trkpt>
      <trkpt lat="44.54849" lon="1.08077">
        <ele>183.094205</ele>
        <time>2022-05-01T10:20:07.815Z</time>
      </trkpt>
      <trkpt lat="44.54846" lon="1.08064">
        <ele>183.165447</ele>
        <time>2022-05-01T10:20:14.815Z</time>
      </trkpt>
      <trkpt lat="44.54842" lon="1.08051">
        <ele>183.232381</ele>
        <time>2022-05-01T10:20:20.832Z</time>
      </trkpt>
      <trkpt lat="44.54838" lon="1.0804">
        <ele>183.296308</ele>
        <time>2022-05-01T10:20:26.789Z</time>
      </trkpt>
      <trkpt lat="44.54835" lon="1.08026">
        <ele>183.366228</ele>
        <time>2022-05-01T10:20:33.835Z</time>
      </trkpt>
      <trkpt lat="44.54828" lon="1.08019">
        <ele>183.431193</ele>
        <time>2022-05-01T10:20:40.796Z</time>
      </trkpt>
      <trkpt lat="44.54821" lon="1.08009">
        <ele>183.49738</ele>
        <time>2022-05-01T10:20:47.829Z</time>
      </trkpt>
      <trkpt lat="44.54819" lon="1.07994">
        <ele>183.570489</ele>
        <time>2022-05-01T10:20:53.799Z</time>
      </trkpt>
      <trkpt lat="44.54816" lon="1.07982">
        <ele>183.634327</ele>
        <time>2022-05-01T10:21:00.809Z</time>
      </trkpt>
      <trkpt lat="44.54817" lon="1.07969">
        <ele>183.701449</ele>
        <time>2022-05-01T10:21:07.815Z</time>
      </trkpt>
      <trkpt lat="44.54815" lon="1.07955">
        <ele>183.770042</ele>
        <time>2022-05-01T10:21:14.791Z</time>
      </trkpt>
      <trkpt lat="44.54813" lon="1.07942">
        <ele>183.837794</ele>
        <time>2022-05-01T10:21:22.813Z</time>
      </trkpt>
      <trkpt lat="44.54813" lon="1.07929">
        <ele>183.90331</ele>
        <time>2022-05-01T10:21:28.803Z</time>
      </trkpt>
      <trkpt lat="44.54817" lon="1.07917">
        <ele>183.965967</ele>
        <time>2022-05-01T10:21:35.797Z</time>
      </trkpt>
      <trkpt lat="44.54817" lon="1.07904">
        <ele>184.029082</ele>
        <time>2022-05-01T10:21:43.830Z</time>
      </trkpt>
      <trkpt lat="44.54808" lon="1.07902">
        <ele>184.091869</ele>
        <time>2022-05-01T10:21:55.801Z</time>
      </trkpt>
      <trkpt lat="44.54798" lon="1.07904">
        <ele>184.163918</ele>
        <time>2022-05-01T10:22:01.813Z</time>
      </trkpt>
      <trkpt lat="44.54789" lon="1.07906">
        <ele>184.230836</ele>
        <time>2022-05-01T10:22:09.804Z</time>
      </trkpt>
      <trkpt lat="44.5478" lon="1.07911">
        <ele>184.509413</ele>
        <time>2022-05-01T10:22:17.803Z</time>
      </trkpt>
      <trkpt lat="44.5477" lon="1.07913">
        <ele>185.032393</ele>
        <time>2022-05-01T10:22:25.808Z</time>
      </trkpt>
      <trkpt lat="44.54761" lon="1.07915">
        <ele>185.558985</ele>
        <time>2022-05-01T10:22:30.810Z</time>
      </trkpt>
      <trkpt lat="44.54752" lon="1.0792">
        <ele>186.081153</ele>
        <time>2022-05-01T10:22:37.800Z</time>
      </trkpt>
      <trkpt lat="44.54743" lon="1.07923">
        <ele>186.586409</ele>
        <time>2022-05-01T10:22:43.778Z</time>
      </trkpt>
      <trkpt lat="44.54733" lon="1.07925">
        <ele>187.136815</ele>
        <time>2022-05-01T10:22:50.829Z</time>
      </trkpt>
      <trkpt lat="44.54724" lon="1.0793">
        <ele>187.645545</ele>
        <time>2022-05-01T10:22:57.814Z</time>
      </trkpt>
      <trkpt lat="44.54715" lon="1.07935">
        <ele>188.157672</ele>
        <time>2022-05-01T10:23:03.807Z</time>
      </trkpt>
      <trkpt lat="44.54705" lon="1.07938">
        <ele>188.693349</ele>
        <time>2022-05-01T10:23:10.805Z</time>
      </trkpt>
      <trkpt lat="44.54696" lon="1.07939">
        <ele>189.197888</ele>
        <time>2022-05-01T10:23:18.807Z</time>
      </trkpt>
      <trkpt lat="44.54686" lon="1.07943">
        <ele>189.782334</ele>
        <time>2022-05-01T10:23:27.819Z</time>
      </trkpt>
      <trkpt lat="44.54677" lon="1.07947">
        <ele>190.289753</ele>
        <time>2022-05-01T10:23:40.806Z</time>
      </trkpt>
      <trkpt lat="44.54667" lon="1.0795">
        <ele>190.83716</ele>
        <time>2022-05-01T10:23:46.792Z</time>
      </trkpt>
      <trkpt lat="44.54657" lon="1.07955">
        <ele>191.41122</ele>
        <time>2022-05-01T10:23:53.812Z</time>
      </trkpt>
      <trkpt lat="44.54649" lon="1.07962">
        <ele>191.925004</ele>
        <time>2022-05-01T10:24:01.819Z</time>
      </trkpt>
      <trkpt lat="44.54641" lon="1.07967">
        <ele>192.414773</ele>
        <time>2022-05-01T10:24:09.806Z</time>
      </trkpt>
      <trkpt lat="44.54631" lon="1.07963">
        <ele>192.961785</ele>
        <time>2022-05-01T10:24:17.800Z</time>
      </trkpt>
      <trkpt lat="44.54621" lon="1.0796">
        <ele>193.505002</ele>
        <time>2022-05-01T10:24:26.792Z</time>
      </trkpt>
      <trkpt lat="44.54614" lon="1.07953">
        <ele>193.994157</ele>
        <time>2022-05-01T10:24:39.810Z</time>
      </trkpt>
      <trkpt lat="44.54605" lon="1.07956">
        <ele>194.947675</ele>
        <time>2022-05-01T10:24:58.809Z</time>
      </trkpt>
      <trkpt lat="44.54596" lon="1.07961">
        <ele>196.039927</ele>
        <time>2022-05-01T10:25:04.793Z</time>
      </trkpt>
      <trkpt lat="44.54588" lon="1.07968">
        <ele>197.044092</ele>
        <time>2022-05-01T10:25:11.804Z</time>
      </trkpt>
      <trkpt lat="44.54579" lon="1.07972">
        <ele>198.037623</ele>
        <time>2022-05-01T10:25:32.793Z</time>
      </trkpt>
      <trkpt lat="44.54574" lon="1.07959">
        <ele>199.178566</ele>
        <time>2022-05-01T10:25:41.800Z</time>
      </trkpt>
      <trkpt lat="44.54568" lon="1.07948">
        <ele>200.313157</ele>
        <time>2022-05-01T10:25:46.804Z</time>
      </trkpt>
      <trkpt lat="44.54561" lon="1.07939">
        <ele>201.319504</ele>
        <time>2022-05-01T10:25:51.805Z</time>
      </trkpt>
      <trkpt lat="44.54555" lon="1.0793">
        <ele>202.308484</ele>
        <time>2022-05-01T10:25:58.809Z</time>
      </trkpt>
      <trkpt lat="44.54548" lon="1.0792">
        <ele>203.371896</ele>
        <time>2022-05-01T10:26:05.795Z</time>
      </trkpt>
      <trkpt lat="44.54541" lon="1.07911">
        <ele>204.415571</ele>
        <time>2022-05-01T10:26:12.808Z</time>
      </trkpt>
      <trkpt lat="44.54533" lon="1.07903">
        <ele>205.442105</ele>
        <time>2022-05-01T10:26:21.810Z</time>
      </trkpt>
      <trkpt lat="44.54527" lon="1.07893">
        <ele>206.483006</ele>
        <time>2022-05-01T10:26:32.818Z</time>
      </trkpt>
      <trkpt lat="44.5452" lon="1.07884">
        <ele>207.561097</ele>
        <time>2022-05-01T10:26:41.800Z</time>
      </trkpt>
      <trkpt lat="44.54514" lon="1.07873">
        <ele>208.581452</ele>
        <time>2022-05-01T10:26:50.809Z</time>
      </trkpt>
      <trkpt lat="44.5451" lon="1.0786">
        <ele>209.675353</ele>
        <time>2022-05-01T10:26:58.815Z</time>
      </trkpt>
      <trkpt lat="44.54506" lon="1.07847">
        <ele>210.772259</ele>
        <time>2022-05-01T10:27:05.822Z</time>
      </trkpt>
      <trkpt lat="44.54502" lon="1.07835">
        <ele>211.764812</ele>
        <time>2022-05-01T10:27:12.829Z</time>
      </trkpt>
      <trkpt lat="44.54496" lon="1.07825">
        <ele>212.79183</ele>
        <time>2022-05-01T10:27:21.819Z</time>
      </trkpt>
      <trkpt lat="44.54493" lon="1.07812">
        <ele>213.683349</ele>
        <time>2022-05-01T10:27:29.809Z</time>
      </trkpt>
      <trkpt lat="44.54488" lon="1.07801">
        <ele>214.131059</ele>
        <time>2022-05-01T10:27:36.815Z</time>
      </trkpt>
      <trkpt lat="44.54482" lon="1.0779">
        <ele>214.570807</ele>
        <time>2022-05-01T10:27:45.819Z</time>
      </trkpt>
      <trkpt lat="44.54477" lon="1.0778">
        <ele>215.004863</ele>
        <time>2022-05-01T10:27:54.817Z</time>
      </trkpt>
      <trkpt lat="44.54473" lon="1.07769">
        <ele>215.436881</ele>
        <time>2022-05-01T10:28:02.803Z</time>
      </trkpt>
      <trkpt lat="44.54468" lon="1.07757">
        <ele>215.878696</ele>
        <time>2022-05-01T10:28:11.813Z</time>
      </trkpt>
      <trkpt lat="44.54461" lon="1.07749">
        <ele>216.308773</ele>
        <time>2022-05-01T10:28:22.802Z</time>
      </trkpt>
      <trkpt lat="44.54454" lon="1.07738">
        <ele>216.807109</ele>
        <time>2022-05-01T10:28:30.823Z</time>
      </trkpt>
      <trkpt lat="44.54448" lon="1.07726">
        <ele>217.28788</ele>
        <time>2022-05-01T10:28:37.794Z</time>
      </trkpt>
      <trkpt lat="44.54446" lon="1.07714">
        <ele>217.718842</ele>
        <time>2022-05-01T10:28:44.807Z</time>
      </trkpt>
      <trkpt lat="44.5444" lon="1.07703">
        <ele>218.173095</ele>
        <time>2022-05-01T10:28:53.807Z</time>
      </trkpt>
      <trkpt lat="44.54434" lon="1.07693">
        <ele>218.618462</ele>
        <time>2022-05-01T10:29:01.801Z</time>
      </trkpt>
      <trkpt lat="44.54429" lon="1.07682">
        <ele>219.074369</ele>
        <time>2022-05-01T10:29:09.798Z</time>
      </trkpt>
      <trkpt lat="44.54423" lon="1.07672">
        <ele>219.523014</ele>
        <time>2022-05-01T10:29:19.815Z</time>
      </trkpt>
      <trkpt lat="44.54415" lon="1.07663">
        <ele>219.971321</ele>
        <time>2022-05-01T10:29:29.787Z</time>
      </trkpt>
      <trkpt lat="44.54408" lon="1.07653">
        <ele>220.445608</ele>
        <time>2022-05-01T10:29:38.814Z</time>
      </trkpt>
      <trkpt lat="44.54401" lon="1.07645">
        <ele>220.911322</ele>
        <time>2022-05-01T10:29:45.810Z</time>
      </trkpt>
      <trkpt lat="44.54391" lon="1.07639">
        <ele>221.391559</ele>
        <time>2022-05-01T10:29:51.808Z</time>
      </trkpt>
      <trkpt lat="44.54385" lon="1.07629">
        <ele>221.838572</ele>
        <time>2022-05-01T10:30:00.819Z</time>
      </trkpt>
      <trkpt lat="44.54379" lon="1.07618">
        <ele>222.275889</ele>
        <time>2022-05-01T10:30:08.805Z</time>
      </trkpt>
      <trkpt lat="44.54374" lon="1.07607">
        <ele>222.684526</ele>
        <time>2022-05-01T10:30:16.789Z</time>
      </trkpt>
      <trkpt lat="44.54367" lon="1.07598">
        <ele>223.115152</ele>
        <time>2022-05-01T10:30:23.820Z</time>
      </trkpt>
      <trkpt lat="44.54361" lon="1.07588">
        <ele>223.519211</ele>
        <time>2022-05-01T10:30:31.801Z</time>
      </trkpt>
      <trkpt lat="44.54353" lon="1.07581">
        <ele>223.923011</ele>
        <time>2022-05-01T10:30:39.803Z</time>
      </trkpt>
      <trkpt lat="44.54343" lon="1.07579">
        <ele>224.37399</ele>
        <time>2022-05-01T10:30:48.807Z</time>
      </trkpt>
      <trkpt lat="44.54334" lon="1.07579">
        <ele>224.774334</ele>
        <time>2022-05-01T10:31:01.810Z</time>
      </trkpt>
      <trkpt lat="44.54324" lon="1.07579">
        <ele>225.218499</ele>
        <time>2022-05-01T10:31:09.816Z</time>
      </trkpt>
      <trkpt lat="44.54315" lon="1.07579">
        <ele>225.615254</ele>
        <time>2022-05-01T10:31:16.804Z</time>
      </trkpt>
      <trkpt lat="44.54305" lon="1.0758">
        <ele>226.056327</ele>
        <time>2022-05-01T10:31:27.805Z</time>
      </trkpt>
      <trkpt lat="44.54295" lon="1.0758">
        <ele>226.483272</ele>
        <time>2022-05-01T10:31:34.808Z</time>
      </trkpt>
      <trkpt lat="44.54286" lon="1.07579">
        <ele>226.884903</ele>
        <time>2022-05-01T10:31:41.814Z</time>
      </trkpt>
      <trkpt lat="44.54278" lon="1.07574">
        <ele>227.280865</ele>
        <time>2022-05-01T10:31:51.822Z</time>
      </trkpt>
      <trkpt lat="44.54269" lon="1.07567">
        <ele>227.714944</ele>
        <time>2022-05-01T10:32:01.807Z</time>
      </trkpt>
      <trkpt lat="44.54261" lon="1.07563">
        <ele>228.114963</ele>
        <time>2022-05-01T10:32:06.794Z</time>
      </trkpt>
      <trkpt lat="44.54252" lon="1.07558">
        <ele>228.535236</ele>
        <time>2022-05-01T10:32:11.808Z</time>
      </trkpt>
      <trkpt lat="44.54245" lon="1.07549">
        <ele>228.943459</ele>
        <time>2022-05-01T10:32:19.800Z</time>
      </trkpt>
      <trkpt lat="44.5424" lon="1.07538">
        <ele>229.362066</ele>
        <time>2022-05-01T10:32:27.811Z</time>
      </trkpt>
      <trkpt lat="44.5423" lon="1.0754">
        <ele>229.816339</ele>
        <time>2022-05-01T10:32:35.811Z</time>
      </trkpt>
      <trkpt lat="44.54221" lon="1.07542">
        <ele>229.97585</ele>
        <time>2022-05-01T10:32:41.809Z</time>
      </trkpt>
      <trkpt lat="44.54211" lon="1.07545">
        <ele>229.97585</ele>
        <time>2022-05-01T10:32:49.808Z</time>
      </trkpt>
      <trkpt lat="44.54202" lon="1.07546">
        <ele>229.97585</ele>
        <time>2022-05-01T10:32:56.814Z</time>
      </trkpt>
      <trkpt lat="44.54194" lon="1.07538">
        <ele>229.97585</ele>
        <time>2022-05-01T10:33:03.812Z</time>
      </trkpt>
      <trkpt lat="44.54191" lon="1.07526">
        <ele>229.97585</ele>
        <time>2022-05-01T10:33:09.813Z</time>
      </trkpt>
      <trkpt lat="44.54188" lon="1.07513">
        <ele>229.97585</ele>
        <time>2022-05-01T10:33:16.803Z</time>
      </trkpt>
      <trkpt lat="44.54183" lon="1.07501">
        <ele>229.97585</ele>
        <time>2022-05-01T10:33:23.851Z</time>
      </trkpt>
      <trkpt lat="44.54184" lon="1.07488">
        <ele>229.97585</ele>
        <time>2022-05-01T10:33:32.795Z</time>
      </trkpt>
      <trkpt lat="44.54187" lon="1.07474">
        <ele>229.97585</ele>
        <time>2022-05-01T10:33:39.797Z</time>
      </trkpt>
      <trkpt lat="44.54193" lon="1.07463">
        <ele>229.97585</ele>
        <time>2022-05-01T10:33:47.803Z</time>
      </trkpt>
      <trkpt lat="44.54198" lon="1.07452">
        <ele>229.97585</ele>
        <time>2022-05-01T10:33:53.819Z</time>
      </trkpt>
      <trkpt lat="44.54199" lon="1.07439">
        <ele>229.97585</ele>
        <time>2022-05-01T10:34:02.802Z</time>
      </trkpt>
      <trkpt lat="44.54192" lon="1.07429">
        <ele>229.97585</ele>
        <time>2022-05-01T10:34:09.808Z</time>
      </trkpt>
      <trkpt lat="44.54184" lon="1.07421">
        <ele>229.97585</ele>
        <time>2022-05-01T10:34:17.802Z</time>
      </trkpt>
      <trkpt lat="44.54175" lon="1.07415">
        <ele>229.97585</ele>
        <time>2022-05-01T10:34:23.814Z</time>
      </trkpt>
      <trkpt lat="44.54168" lon="1.07405">
        <ele>229.97585</ele>
        <time>2022-05-01T10:34:31.812Z</time>
      </trkpt>
      <trkpt lat="44.54175" lon="1.07395">
        <ele>229.97585</ele>
        <time>2022-05-01T10:34:40.820Z</time>
      </trkpt>
      <trkpt lat="44.54182" lon="1.07387">
        <ele>229.97585</ele>
        <time>2022-05-01T10:34:48.810Z</time>
      </trkpt>
      <trkpt lat="44.54183" lon="1.07374">
        <ele>229.97585</ele>
        <time>2022-05-01T10:34:57.794Z</time>
      </trkpt>
      <trkpt lat="44.54177" lon="1.07348">
        <ele>229.97585</ele>
        <time>2022-05-01T10:54:22.795Z</time>
      </trkpt>
      <trkpt lat="44.54177" lon="1.07347">
        <ele>229.97585</ele>
        <time>2022-05-01T10:54:34.276Z</time>
      </trkpt>
    </trkseg>
  </trk>
</gpx>